Observation data for Umbarger on 06/20/2019      Previous  Date  Next       Current Mesonet Observations  Soil Data  Daily Summary Page  Observations in Plain Language
KUM1 200500Z 13009KT 21/14 A2988 RMK A01 T02130138  RH  062%=      5-min Rain = 0
KUM1 200501Z 14010KT 21/14 A2988 RMK A01 T02130138  RH  062%=      5-min Rain = 0
KUM1 200502Z 14009KT 21/14 A2988 RMK A01 T02140139  RH  062%=      5-min Rain = 0
KUM1 200503Z 14008KT 22/14 A2988 RMK A01 T02150139  RH  062%=      5-min Rain = 0
KUM1 200504Z 14007KT 22/14 A2988 RMK A01 T02150139  RH  062%=      5-min Rain = 0
KUM1 200505Z 13007KT 21/14 A2988 RMK A01 T02140139  RH  062%=      5-min Rain = 0
KUM1 200506Z 13008KT 21/14 A2988 RMK A01 T02130139  RH  063%=      5-min Rain = 0
KUM1 200507Z 14008KT 21/14 A2988 RMK A01 T02130140  RH  063%=      5-min Rain = 0
KUM1 200508Z 13008KT 21/14 A2988 RMK A01 T02120140  RH  063%=      5-min Rain = 0
KUM1 200509Z 14009KT 21/14 A2988 RMK A01 T02130140  RH  063%=      5-min Rain = 0
KUM1 200510Z 14009KT 21/14 A2988 RMK A01 T02130140  RH  063%=      5-min Rain = 0
KUM1 200511Z 14008KT 21/14 A2988 RMK A01 T02130140  RH  063%=      5-min Rain = 0
KUM1 200512Z 14007KT 21/14 A2988 RMK A01 T02140141  RH  063%=      5-min Rain = 0
KUM1 200513Z 14008KT 21/14 A2988 RMK A01 T02130141  RH  063%=      5-min Rain = 0
KUM1 200514Z 14008KT 21/14 A2988 RMK A01 T02130141  RH  063%=      5-min Rain = 0
KUM1 200515Z 14008KT 21/14 A2988 RMK A01 T02120141  RH  064%=      5-min Rain = 0
KUM1 200516Z 14008KT 21/14 A2988 RMK A01 T02120141  RH  064%=      5-min Rain = 0
KUM1 200517Z 14008KT 21/14 A2988 RMK A01 T02110140  RH  064%=      5-min Rain = 0
KUM1 200518Z 14008KT 21/14 A2988 RMK A01 T02100141  RH  064%=      5-min Rain = 0
KUM1 200519Z 14009KT 21/14 A2988 RMK A01 T02090141  RH  065%=      5-min Rain = 0
KUM1 200520Z 14009KT 21/14 A2988 RMK A01 T02090141  RH  065%=      5-min Rain = 0
KUM1 200521Z 14010KT 21/14 A2988 RMK A01 T02090141  RH  065%=      5-min Rain = 0
KUM1 200522Z 14009KT 21/14 A2988 RMK A01 T02090141  RH  065%=      5-min Rain = 0
KUM1 200523Z 14010KT 21/14 A2988 RMK A01 T02100142  RH  065%=      5-min Rain = 0
KUM1 200524Z 14009KT 21/14 A2988 RMK A01 T02090142  RH  065%=      5-min Rain = 0
KUM1 200525Z 14010KT 21/14 A2988 RMK A01 T02090142  RH  066%=      5-min Rain = 0
KUM1 200526Z 14009KT 21/14 A2988 RMK A01 T02090142  RH  066%=      5-min Rain = 0
KUM1 200527Z 15009KT 21/14 A2988 RMK A01 T02080142  RH  066%=      5-min Rain = 0
KUM1 200528Z 15009KT 21/14 A2988 RMK A01 T02090142  RH  066%=      5-min Rain = 0
KUM1 200529Z 15009KT 21/14 A2988 RMK A01 T02090143  RH  066%=      5-min Rain = 0
KUM1 200530Z 14010KT 21/14 A2988 RMK A01 T02090143  RH  066%=      5-min Rain = 0
KUM1 200531Z 14009KT 21/14 A2988 RMK A01 T02090143  RH  066%=      5-min Rain = 0
KUM1 200532Z 14009KT 21/14 A2988 RMK A01 T02090143  RH  066%=      5-min Rain = 0
KUM1 200533Z 13008KT 21/14 A2988 RMK A01 T02090144  RH  066%=      5-min Rain = 0
KUM1 200534Z 14009KT 21/14 A2988 RMK A01 T02090144  RH  066%=      5-min Rain = 0
KUM1 200535Z 14009KT 21/14 A2988 RMK A01 T02090144  RH  067%=      5-min Rain = 0
KUM1 200536Z 14009KT 21/14 A2988 RMK A01 T02080144  RH  067%=      5-min Rain = 0
KUM1 200537Z 14010KT 21/14 A2988 RMK A01 T02080144  RH  067%=      5-min Rain = 0
KUM1 200538Z 14009KT 21/14 A2989 RMK A01 T02090144  RH  067%=      5-min Rain = 0
KUM1 200539Z 14009KT 21/14 A2989 RMK A01 T02080144  RH  067%=      5-min Rain = 0
KUM1 200540Z 14009KT 21/14 A2989 RMK A01 T02080144  RH  067%=      5-min Rain = 0
KUM1 200541Z 14009KT 21/14 A2989 RMK A01 T02070144  RH  067%=      5-min Rain = 0
KUM1 200542Z 14009KT 21/15 A2989 RMK A01 T02080145  RH  067%=      5-min Rain = 0
KUM1 200543Z 14009KT 21/15 A2989 RMK A01 T02080145  RH  067%=      5-min Rain = 0
KUM1 200544Z 15008KT 21/15 A2989 RMK A01 T02080145  RH  067%=      5-min Rain = 0
KUM1 200545Z 14009KT 21/14 A2989 RMK A01 T02070144  RH  067%=      5-min Rain = 0
KUM1 200546Z 15009KT 21/15 A2989 RMK A01 T02070145  RH  067%=      5-min Rain = 0
KUM1 200547Z 15009KT 21/15 A2989 RMK A01 T02080145  RH  067%=      5-min Rain = 0
KUM1 200548Z 15009KT 21/15 A2989 RMK A01 T02080145  RH  067%=      5-min Rain = 0
KUM1 200549Z 15009KT 21/15 A2989 RMK A01 T02080145  RH  067%=      5-min Rain = 0
KUM1 200550Z 15010KT 21/15 A2989 RMK A01 T02080146  RH  067%=      5-min Rain = 0
KUM1 200551Z 14011KT 21/15 A2989 RMK A01 T02080145  RH  067%=      5-min Rain = 0
KUM1 200552Z 14009KT 21/15 A2989 RMK A01 T02080145  RH  067%=      5-min Rain = 0
KUM1 200553Z 14010KT 21/15 A2989 RMK A01 T02080146  RH  067%=      5-min Rain = 0
KUM1 200554Z 15009KT 21/15 A2989 RMK A01 T02080146  RH  068%=      5-min Rain = 0
KUM1 200555Z 15008KT 21/15 A2989 RMK A01 T02070146  RH  068%=      5-min Rain = 0
KUM1 200556Z 15008KT 21/15 A2989 RMK A01 T02060146  RH  068%=      5-min Rain = 0
KUM1 200557Z 15009KT 21/15 A2989 RMK A01 T02060146  RH  069%=      5-min Rain = 0
KUM1 200558Z 15009KT 21/15 A2989 RMK A01 T02060147  RH  069%=      5-min Rain = 0
KUM1 200559Z 15008KT 21/15 A2989 RMK A01 T02050146  RH  069%=      5-min Rain = 0
KUM1 200600Z 15009KT 21/15 A2989 RMK A01 T02050146  RH  069%=      5-min Rain = 0
KUM1 200601Z 15008KT 20/15 A2989 RMK A01 T02040146  RH  069%=      5-min Rain = 0
KUM1 200602Z 15010KT 20/15 A2989 RMK A01 T02030146  RH  070%=      5-min Rain = 0
KUM1 200603Z 15008KT 20/15 A2988 RMK A01 T02020146  RH  070%=      5-min Rain = 0
KUM1 200604Z 15009KT 20/15 A2988 RMK A01 T02020146  RH  070%=      5-min Rain = 0
KUM1 200605Z 15009KT 20/15 A2989 RMK A01 T02010146  RH  071%=      5-min Rain = 0
KUM1 200606Z 15008KT 20/15 A2989 RMK A01 T02010146  RH  071%=      5-min Rain = 0
KUM1 200607Z 16008KT 20/15 A2989 RMK A01 T02000146  RH  071%=      5-min Rain = 0
KUM1 200608Z 16009KT 20/15 A2989 RMK A01 T01990146  RH  071%=      5-min Rain = 0
KUM1 200609Z 16008KT 20/15 A2989 RMK A01 T01990147  RH  072%=      5-min Rain = 0
KUM1 200610Z 16008KT 20/15 A2989 RMK A01 T01990147  RH  072%=      5-min Rain = 0
KUM1 200611Z 16008KT 20/15 A2989 RMK A01 T01990146  RH  072%=      5-min Rain = 0
KUM1 200612Z 17008KT 20/15 A2989 RMK A01 T01980147  RH  072%=      5-min Rain = 0
KUM1 200613Z 16008KT 20/15 A2989 RMK A01 T01970146  RH  073%=      5-min Rain = 0
KUM1 200614Z 16008KT 20/15 A2988 RMK A01 T01960147  RH  073%=      5-min Rain = 0
KUM1 200615Z 16007KT 20/15 A2988 RMK A01 T01950147  RH  073%=      5-min Rain = 0
KUM1 200616Z 16008KT 20/15 A2988 RMK A01 T01950147  RH  074%=      5-min Rain = 0
KUM1 200617Z 16008KT 19/15 A2988 RMK A01 T01940147  RH  074%=      5-min Rain = 0
KUM1 200618Z 16009KT 19/15 A2988 RMK A01 T01940147  RH  074%=      5-min Rain = 0
KUM1 200619Z 17008KT 19/15 A2988 RMK A01 T01940148  RH  074%=      5-min Rain = 0
KUM1 200620Z 16007KT 19/15 A2988 RMK A01 T01940148  RH  075%=      5-min Rain = 0
KUM1 200621Z 16009KT 19/15 A2988 RMK A01 T01930148  RH  075%=      5-min Rain = 0
KUM1 200622Z 16008KT 19/15 A2988 RMK A01 T01940149  RH  075%=      5-min Rain = 0
KUM1 200623Z 16008KT 19/15 A2988 RMK A01 T01940149  RH  075%=      5-min Rain = 0
KUM1 200624Z 16008KT 19/15 A2988 RMK A01 T01940150  RH  075%=      5-min Rain = 0
KUM1 200625Z 16007KT 19/15 A2988 RMK A01 T01940150  RH  076%=      5-min Rain = 0
KUM1 200626Z 17008KT 19/15 A2988 RMK A01 T01940151  RH  076%=      5-min Rain = 0
KUM1 200627Z 17009KT 19/15 A2988 RMK A01 T01940151  RH  077%=      5-min Rain = 0
KUM1 200628Z 17009KT 19/15 A2988 RMK A01 T01940152  RH  077%=      5-min Rain = 0
KUM1 200629Z 17008KT 19/15 A2988 RMK A01 T01940152  RH  077%=      5-min Rain = 0
KUM1 200630Z 17009KT 19/15 A2988 RMK A01 T01940153  RH  077%=      5-min Rain = 0
KUM1 200631Z 17008KT 19/15 A2988 RMK A01 T01940153  RH  077%=      5-min Rain = 0
KUM1 200632Z 17009KT 19/15 A2988 RMK A01 T01940154  RH  077%=      5-min Rain = 0
KUM1 200633Z 17009KT 20/16 A2988 RMK A01 T01950155  RH  078%=      5-min Rain = 0
KUM1 200634Z 17009KT 20/16 A2988 RMK A01 T01950155  RH  078%=      5-min Rain = 0
KUM1 200635Z 17009KT 20/16 A2988 RMK A01 T01960156  RH  078%=      5-min Rain = 0
KUM1 200636Z 17010KT 20/16 A2988 RMK A01 T01960156  RH  078%=      5-min Rain = 0
KUM1 200637Z 16011KT 20/16 A2988 RMK A01 T01960158  RH  079%=      5-min Rain = 0
KUM1 200638Z 16010KT 20/16 A2988 RMK A01 T01970159  RH  079%=      5-min Rain = 0
KUM1 200639Z 16009KT 20/16 A2988 RMK A01 T01970158  RH  078%=      5-min Rain = 0
KUM1 200640Z 17010KT 20/16 A2988 RMK A01 T01970158  RH  078%=      5-min Rain = 0
KUM1 200641Z 16009KT 20/16 A2988 RMK A01 T01980159  RH  079%=      5-min Rain = 0
KUM1 200642Z 16009KT 20/16 A2988 RMK A01 T01970159  RH  079%=      5-min Rain = 0
KUM1 200643Z 16009KT 20/16 A2988 RMK A01 T01980160  RH  079%=      5-min Rain = 0
KUM1 200644Z 16009KT 20/16 A2988 RMK A01 T01970160  RH  079%=      5-min Rain = 0
KUM1 200645Z 17009KT 20/16 A2988 RMK A01 T01970160  RH  079%=      5-min Rain = 0
KUM1 200646Z 16009KT 20/16 A2988 RMK A01 T01970160  RH  079%=      5-min Rain = 0
KUM1 200647Z 16009KT 20/16 A2988 RMK A01 T01980161  RH  079%=      5-min Rain = 0
KUM1 200648Z 16010KT 20/16 A2988 RMK A01 T01980161  RH  079%=      5-min Rain = 0
KUM1 200649Z 16009KT 20/16 A2988 RMK A01 T01980161  RH  079%=      5-min Rain = 0
KUM1 200650Z 16010KT 20/16 A2988 RMK A01 T01980162  RH  079%=      5-min Rain = 0
KUM1 200651Z 16009KT 20/16 A2988 RMK A01 T01980162  RH  080%=      5-min Rain = 0
KUM1 200652Z 17009KT 20/16 A2988 RMK A01 T01980162  RH  080%=      5-min Rain = 0
KUM1 200653Z 16010KT 20/16 A2988 RMK A01 T01970162  RH  080%=      5-min Rain = 0
KUM1 200654Z 17008KT 20/16 A2988 RMK A01 T01970162  RH  080%=      5-min Rain = 0
KUM1 200655Z 17010KT 20/16 A2988 RMK A01 T01970162  RH  081%=      5-min Rain = 0
KUM1 200656Z 17010KT 20/16 A2988 RMK A01 T01970163  RH  081%=      5-min Rain = 0
KUM1 200657Z 17009KT 20/16 A2988 RMK A01 T01980163  RH  081%=      5-min Rain = 0
KUM1 200658Z 17009KT 20/16 A2988 RMK A01 T01980163  RH  081%=      5-min Rain = 0
KUM1 200659Z 16009KT 20/16 A2987 RMK A01 T01980164  RH  081%=      5-min Rain = 0
KUM1 200700Z 16009KT 20/16 A2988 RMK A01 T01980164  RH  081%=      5-min Rain = 0
KUM1 200701Z 16009KT 20/17 A2988 RMK A01 T01990165  RH  081%=      5-min Rain = 0
KUM1 200702Z 16009KT 20/17 A2988 RMK A01 T01990165  RH  081%=      5-min Rain = 0
KUM1 200703Z 16009KT 20/17 A2988 RMK A01 T01990165  RH  080%=      5-min Rain = 0
KUM1 200704Z 16008KT 20/17 A2988 RMK A01 T02000165  RH  080%=      5-min Rain = 0
KUM1 200705Z 17008KT 20/17 A2988 RMK A01 T02000165  RH  080%=      5-min Rain = 0
KUM1 200706Z 17008KT 20/17 A2988 RMK A01 T02000165  RH  080%=      5-min Rain = 0
KUM1 200707Z 16008KT 20/17 A2988 RMK A01 T01990165  RH  081%=      5-min Rain = 0
KUM1 200708Z 17007KT 20/17 A2988 RMK A01 T01990165  RH  081%=      5-min Rain = 0
KUM1 200709Z 16007KT 20/17 A2988 RMK A01 T01990165  RH  081%=      5-min Rain = 0
KUM1 200710Z 16007KT 20/17 A2988 RMK A01 T01980165  RH  081%=      5-min Rain = 0
KUM1 200711Z 16006KT 20/16 A2988 RMK A01 T01980164  RH  081%=      5-min Rain = 0
KUM1 200712Z 16007KT 20/16 A2988 RMK A01 T01970164  RH  082%=      5-min Rain = 0
KUM1 200713Z 16007KT 20/17 A2988 RMK A01 T01970165  RH  082%=      5-min Rain = 0
KUM1 200714Z 16006KT 20/16 A2988 RMK A01 T01960164  RH  082%=      5-min Rain = 0
KUM1 200715Z 16007KT 20/16 A2988 RMK A01 T01960164  RH  082%=      5-min Rain = 0
KUM1 200716Z 16007KT 20/17 A2988 RMK A01 T01960165  RH  082%=      5-min Rain = 0
KUM1 200717Z 16007KT 20/16 A2988 RMK A01 T01960164  RH  082%=      5-min Rain = 0
KUM1 200718Z 16006KT 20/16 A2988 RMK A01 T01960164  RH  082%=      5-min Rain = 0
KUM1 200719Z 17007KT 20/16 A2988 RMK A01 T01960164  RH  082%=      5-min Rain = 0
KUM1 200720Z 17007KT 20/17 A2988 RMK A01 T01960165  RH  082%=      5-min Rain = 0
KUM1 200721Z 17007KT 20/17 A2988 RMK A01 T01960165  RH  082%=      5-min Rain = 0
KUM1 200722Z 16007KT 20/17 A2988 RMK A01 T01980166  RH  082%=      5-min Rain = 0
KUM1 200723Z 17007KT 20/17 A2988 RMK A01 T01990166  RH  081%=      5-min Rain = 0
KUM1 200724Z 17007KT 20/17 A2988 RMK A01 T02000166  RH  081%=      5-min Rain = 0
KUM1 200725Z 17008KT 20/17 A2988 RMK A01 T02000167  RH  081%=      5-min Rain = 0
KUM1 200726Z 17006KT 20/17 A2988 RMK A01 T02010167  RH  081%=      5-min Rain = 0
KUM1 200727Z 17006KT 20/17 A2988 RMK A01 T02020167  RH  080%=      5-min Rain = 0
KUM1 200728Z 18007KT 20/17 A2988 RMK A01 T02020168  RH  080%=      5-min Rain = 0
KUM1 200729Z 17006KT 20/17 A2988 RMK A01 T02020168  RH  080%=      5-min Rain = 0
KUM1 200730Z 18007KT 20/17 A2988 RMK A01 T02030168  RH  080%=      5-min Rain = 0
KUM1 200731Z 18005KT 20/17 A2988 RMK A01 T02030168  RH  080%=      5-min Rain = 0
KUM1 200732Z 19005KT 20/17 A2988 RMK A01 T02020167  RH  080%=      5-min Rain = 0
KUM1 200733Z 19007KT 20/17 A2988 RMK A01 T02010167  RH  080%=      5-min Rain = 0
KUM1 200734Z 19006KT 20/17 A2988 RMK A01 T02010167  RH  081%=      5-min Rain = 0
KUM1 200735Z 18006KT 20/17 A2988 RMK A01 T02010168  RH  081%=      5-min Rain = 0
KUM1 200736Z 19007KT 20/17 A2988 RMK A01 T02010168  RH  081%=      5-min Rain = 0
KUM1 200737Z 19006KT 20/17 A2988 RMK A01 T02000168  RH  081%=      5-min Rain = 0
KUM1 200738Z 18006KT 20/17 A2988 RMK A01 T02000168  RH  082%=      5-min Rain = 0
KUM1 200739Z 19007KT 20/17 A2988 RMK A01 T02000169  RH  082%=      5-min Rain = 0
KUM1 200740Z 19008KT 20/17 A2988 RMK A01 T02000170  RH  083%=      5-min Rain = 0
KUM1 200741Z 19007KT 20/17 A2988 RMK A01 T02020171  RH  083%=      5-min Rain = 0
KUM1 200742Z 20007KT 20/17 A2988 RMK A01 T02030171  RH  082%=      5-min Rain = 0
KUM1 200743Z 20007KT 20/17 A2988 RMK A01 T02040172  RH  082%=      5-min Rain = 0
KUM1 200744Z 20007KT 20/17 A2988 RMK A01 T02040172  RH  082%=      5-min Rain = 0
KUM1 200745Z 20008KT 20/17 A2988 RMK A01 T02040172  RH  082%=      5-min Rain = 0
KUM1 200746Z 19007KT 20/17 A2988 RMK A01 T02040172  RH  082%=      5-min Rain = 0
KUM1 200747Z 19007KT 20/17 A2988 RMK A01 T02040172  RH  082%=      5-min Rain = 0
KUM1 200748Z 19007KT 20/17 A2988 RMK A01 T02040172  RH  081%=      5-min Rain = 0
KUM1 200749Z 20008KT 20/17 A2988 RMK A01 T02040172  RH  082%=      5-min Rain = 0
KUM1 200750Z 20008KT 20/17 A2988 RMK A01 T02040172  RH  082%=      5-min Rain = 0
KUM1 200751Z 20007KT 21/17 A2988 RMK A01 T02050172  RH  082%=      5-min Rain = 0
KUM1 200752Z 20008KT 21/17 A2988 RMK A01 T02050172  RH  082%=      5-min Rain = 0
KUM1 200753Z 20007KT 21/17 A2988 RMK A01 T02050173  RH  082%=      5-min Rain = 0
KUM1 200754Z 20007KT 20/17 A2988 RMK A01 T02040172  RH  082%=      5-min Rain = 0
KUM1 200755Z 20007KT 20/17 A2988 RMK A01 T02040172  RH  082%=      5-min Rain = 0
KUM1 200756Z 19007KT 20/17 A2988 RMK A01 T02030172  RH  082%=      5-min Rain = 0
KUM1 200757Z 19007KT 20/17 A2988 RMK A01 T02030172  RH  083%=      5-min Rain = 0
KUM1 200758Z 19006KT 20/17 A2988 RMK A01 T02020172  RH  083%=      5-min Rain = 0
KUM1 200759Z 19008KT 20/17 A2988 RMK A01 T02030172  RH  083%=      5-min Rain = 0
KUM1 200800Z 19007KT 20/17 A2988 RMK A01 T02030173  RH  083%=      5-min Rain = 0
KUM1 200801Z 19006KT 20/17 A2988 RMK A01 T02040172  RH  082%=      5-min Rain = 0
KUM1 200802Z 19007KT 20/17 A2988 RMK A01 T02040173  RH  082%=      5-min Rain = 0
KUM1 200803Z 19007KT 20/17 A2987 RMK A01 T02030173  RH  082%=      5-min Rain = 0
KUM1 200804Z 18007KT 20/17 A2988 RMK A01 T02040173  RH  083%=      5-min Rain = 0
KUM1 200805Z 19006KT 20/17 A2987 RMK A01 T02040173  RH  083%=      5-min Rain = 0
KUM1 200806Z 18007KT 20/17 A2988 RMK A01 T02030173  RH  083%=      5-min Rain = 0
KUM1 200807Z 19006KT 20/17 A2988 RMK A01 T02030173  RH  083%=      5-min Rain = 0
KUM1 200808Z 19005KT 20/17 A2988 RMK A01 T02030173  RH  083%=      5-min Rain = 0
KUM1 200809Z 19007KT 20/17 A2988 RMK A01 T02020173  RH  083%=      5-min Rain = 0
KUM1 200810Z 19006KT 20/17 A2988 RMK A01 T02020173  RH  083%=      5-min Rain = 0
KUM1 200811Z 18006KT 20/17 A2988 RMK A01 T02020173  RH  083%=      5-min Rain = 0
KUM1 200812Z 19007KT 20/17 A2988 RMK A01 T02030173  RH  083%=      5-min Rain = 0
KUM1 200813Z 19006KT 20/17 A2988 RMK A01 T02020173  RH  083%=      5-min Rain = 0
KUM1 200814Z 18007KT 20/17 A2988 RMK A01 T02020173  RH  083%=      5-min Rain = 0
KUM1 200815Z 19006KT 20/17 A2987 RMK A01 T02020173  RH  083%=      5-min Rain = 0
KUM1 200816Z 19007KT 20/17 A2987 RMK A01 T02020173  RH  084%=      5-min Rain = 0
KUM1 200817Z 18006KT 20/17 A2987 RMK A01 T02020173  RH  084%=      5-min Rain = 0
KUM1 200818Z 18007KT 20/17 A2987 RMK A01 T02020173  RH  084%=      5-min Rain = 0
KUM1 200819Z 18006KT 20/17 A2987 RMK A01 T02020174  RH  084%=      5-min Rain = 0
KUM1 200820Z 17008KT 20/17 A2987 RMK A01 T02020174  RH  084%=      5-min Rain = 0
KUM1 200821Z 18008KT 20/17 A2987 RMK A01 T02020174  RH  084%=      5-min Rain = 0
KUM1 200822Z 17007KT 20/18 A2987 RMK A01 T02020175  RH  084%=      5-min Rain = 0
KUM1 200823Z 17007KT 20/17 A2987 RMK A01 T02020174  RH  084%=      5-min Rain = 0
KUM1 200824Z 18008KT 20/17 A2987 RMK A01 T02020174  RH  084%=      5-min Rain = 0
KUM1 200825Z 18006KT 20/18 A2987 RMK A01 T02020175  RH  084%=      5-min Rain = 0
KUM1 200826Z 18007KT 20/17 A2987 RMK A01 T02020174  RH  084%=      5-min Rain = 0
KUM1 200827Z 17008KT 20/18 A2987 RMK A01 T02020175  RH  084%=      5-min Rain = 0
KUM1 200828Z 17007KT 20/18 A2987 RMK A01 T02020175  RH  084%=      5-min Rain = 0
KUM1 200829Z 18008KT 20/18 A2987 RMK A01 T02020175  RH  084%=      5-min Rain = 0
KUM1 200830Z 18008KT 20/18 A2987 RMK A01 T02020175  RH  084%=      5-min Rain = 0
KUM1 200831Z 18007KT 20/18 A2987 RMK A01 T02020175  RH  084%=      5-min Rain = 0
KUM1 200832Z 18009KT 20/18 A2987 RMK A01 T02020175  RH  084%=      5-min Rain = 0
KUM1 200833Z 17008KT 20/18 A2987 RMK A01 T02030175  RH  084%=      5-min Rain = 0
KUM1 200834Z 17008KT 20/18 A2987 RMK A01 T02030175  RH  084%=      5-min Rain = 0
KUM1 200835Z 18008KT 20/18 A2987 RMK A01 T02030175  RH  084%=      5-min Rain = 0
KUM1 200836Z 18010KT 20/18 A2987 RMK A01 T02020175  RH  084%=      5-min Rain = 0
KUM1 200837Z 18010KT 20/18 A2987 RMK A01 T02020175  RH  084%=      5-min Rain = 0
KUM1 200838Z 18009KT 20/18 A2987 RMK A01 T02030175  RH  084%=      5-min Rain = 0
KUM1 200839Z 18010KT 20/18 A2987 RMK A01 T02030175  RH  084%=      5-min Rain = 0
KUM1 200840Z 18009KT 20/18 A2987 RMK A01 T02040176  RH  084%=      5-min Rain = 0
KUM1 200841Z 18008KT 20/18 A2987 RMK A01 T02040175  RH  084%=      5-min Rain = 0
KUM1 200842Z 18009KT 20/18 A2987 RMK A01 T02030175  RH  084%=      5-min Rain = 0
KUM1 200843Z 18008KT 20/18 A2987 RMK A01 T02030175  RH  084%=      5-min Rain = 0
KUM1 200844Z 18008KT 20/18 A2987 RMK A01 T02030175  RH  084%=      5-min Rain = 0
KUM1 200845Z 17009KT 20/18 A2987 RMK A01 T02020175  RH  084%=      5-min Rain = 0
KUM1 200846Z 18008KT 20/17 A2987 RMK A01 T02020174  RH  084%=      5-min Rain = 0
KUM1 200847Z 18008KT 20/17 A2987 RMK A01 T02020174  RH  084%=      5-min Rain = 0
KUM1 200848Z 18008KT 20/18 A2987 RMK A01 T02020175  RH  084%=      5-min Rain = 0
KUM1 200849Z 18008KT 20/17 A2987 RMK A01 T02020174  RH  084%=      5-min Rain = 0
KUM1 200850Z 18008KT 20/17 A2987 RMK A01 T02020174  RH  084%=      5-min Rain = 0
KUM1 200851Z 18007KT 20/18 A2987 RMK A01 T02020175  RH  084%=      5-min Rain = 0
KUM1 200852Z 18006KT 20/17 A2987 RMK A01 T02010174  RH  084%=      5-min Rain = 0
KUM1 200853Z 18008KT 20/17 A2987 RMK A01 T02010173  RH  084%=      5-min Rain = 0
KUM1 200854Z 18006KT 20/17 A2987 RMK A01 T02010174  RH  084%=      5-min Rain = 0
KUM1 200855Z 18007KT 20/17 A2987 RMK A01 T02000173  RH  085%=      5-min Rain = 0
KUM1 200856Z 18008KT 20/17 A2986 RMK A01 T01990173  RH  085%=      5-min Rain = 0
KUM1 200857Z 18008KT 20/17 A2986 RMK A01 T02000173  RH  085%=      5-min Rain = 0
KUM1 200858Z 18007KT 20/17 A2986 RMK A01 T02000173  RH  084%=      5-min Rain = 0
KUM1 200859Z 18008KT 20/17 A2986 RMK A01 T02000173  RH  084%=      5-min Rain = 0
KUM1 200900Z 18008KT 20/17 A2986 RMK A01 T02000173  RH  084%=      5-min Rain = 0
KUM1 200901Z 18009KT 20/17 A2986 RMK A01 T02000173  RH  085%=      5-min Rain = 0
KUM1 200902Z 18010KT 20/17 A2986 RMK A01 T02000173  RH  085%=      5-min Rain = 0
KUM1 200903Z 18010KT 20/17 A2986 RMK A01 T02000173  RH  084%=      5-min Rain = 0
KUM1 200904Z 18009KT 20/17 A2986 RMK A01 T02000173  RH  084%=      5-min Rain = 0
KUM1 200905Z 18008KT 20/17 A2986 RMK A01 T02010173  RH  084%=      5-min Rain = 0
KUM1 200906Z 18008KT 20/17 A2986 RMK A01 T02010173  RH  084%=      5-min Rain = 0
KUM1 200907Z 18009KT 20/17 A2986 RMK A01 T02010173  RH  084%=      5-min Rain = 0
KUM1 200908Z 18010KT 20/17 A2986 RMK A01 T02000173  RH  084%=      5-min Rain = 0
KUM1 200909Z 18009KT 20/17 A2986 RMK A01 T02000173  RH  084%=      5-min Rain = 0
KUM1 200910Z 18009KT 20/17 A2986 RMK A01 T02000173  RH  084%=      5-min Rain = 0
KUM1 200911Z 17008KT 20/17 A2986 RMK A01 T01990173  RH  084%=      5-min Rain = 0
KUM1 200912Z 18009KT 20/17 A2986 RMK A01 T01990173  RH  085%=      5-min Rain = 0
KUM1 200913Z 18010KT 20/17 A2986 RMK A01 T01990173  RH  085%=      5-min Rain = 0
KUM1 200914Z 18010KT 20/17 A2986 RMK A01 T01990173  RH  085%=      5-min Rain = 0
KUM1 200915Z 18009KT 20/17 A2986 RMK A01 T01990173  RH  085%=      5-min Rain = 0
KUM1 200916Z 17008KT 20/17 A2986 RMK A01 T01990173  RH  085%=      5-min Rain = 0
KUM1 200917Z 18009KT 20/17 A2986 RMK A01 T01990173  RH  085%=      5-min Rain = 0
KUM1 200918Z 17008KT 20/17 A2986 RMK A01 T01980173  RH  085%=      5-min Rain = 0
KUM1 200919Z 18008KT 20/17 A2986 RMK A01 T01980173  RH  085%=      5-min Rain = 0
KUM1 200920Z 18007KT 20/17 A2986 RMK A01 T01970172  RH  085%=      5-min Rain = 0
KUM1 200921Z 18006KT 20/17 A2986 RMK A01 T01960172  RH  086%=      5-min Rain = 0
KUM1 200922Z 18007KT 20/17 A2986 RMK A01 T01950172  RH  086%=      5-min Rain = 0
KUM1 200923Z 18008KT 20/17 A2986 RMK A01 T01950172  RH  086%=      5-min Rain = 0
KUM1 200924Z 18007KT 20/17 A2986 RMK A01 T01950172  RH  087%=      5-min Rain = 0
KUM1 200925Z 17007KT 20/17 A2986 RMK A01 T01950172  RH  086%=      5-min Rain = 0
KUM1 200926Z 17007KT 20/17 A2986 RMK A01 T01950172  RH  087%=      5-min Rain = 0
KUM1 200927Z 17007KT 19/17 A2986 RMK A01 T01940172  RH  087%=      5-min Rain = 0
KUM1 200928Z 17006KT 19/17 A2986 RMK A01 T01940172  RH  087%=      5-min Rain = 0
KUM1 200929Z 17007KT 19/17 A2986 RMK A01 T01940172  RH  087%=      5-min Rain = 0
KUM1 200930Z 17006KT 19/17 A2987 RMK A01 T01940172  RH  087%=      5-min Rain = 0
KUM1 200931Z 17006KT 19/17 A2987 RMK A01 T01930172  RH  087%=      5-min Rain = 0
KUM1 200932Z 18005KT 19/17 A2987 RMK A01 T01930171  RH  087%=      5-min Rain = 0
KUM1 200933Z 18006KT 19/17 A2987 RMK A01 T01920171  RH  087%=      5-min Rain = 0
KUM1 200934Z 17005KT 19/17 A2987 RMK A01 T01920171  RH  088%=      5-min Rain = 0
KUM1 200935Z 17006KT 19/17 A2987 RMK A01 T01920171  RH  088%=      5-min Rain = 0
KUM1 200936Z 18006KT 19/17 A2987 RMK A01 T01920172  RH  088%=      5-min Rain = 0
KUM1 200937Z 17006KT 19/17 A2987 RMK A01 T01920172  RH  088%=      5-min Rain = 0
KUM1 200938Z 18005KT 19/17 A2987 RMK A01 T01920171  RH  088%=      5-min Rain = 0
KUM1 200939Z 17005KT 19/17 A2987 RMK A01 T01930171  RH  087%=      5-min Rain = 0
KUM1 200940Z 18005KT 19/17 A2987 RMK A01 T01930172  RH  088%=      5-min Rain = 0
KUM1 200941Z 18004KT 19/17 A2987 RMK A01 T01920171  RH  087%=      5-min Rain = 0
KUM1 200942Z 18004KT 19/17 A2987 RMK A01 T01920171  RH  087%=      5-min Rain = 0
KUM1 200943Z 19004KT 19/17 A2987 RMK A01 T01910170  RH  088%=      5-min Rain = 0
KUM1 200944Z 18004KT 19/17 A2987 RMK A01 T01910170  RH  088%=      5-min Rain = 0
KUM1 200945Z 19004KT 19/17 A2987 RMK A01 T01910170  RH  088%=      5-min Rain = 0
KUM1 200946Z 18004KT 19/17 A2987 RMK A01 T01900170  RH  088%=      5-min Rain = 0
KUM1 200947Z 19003KT 19/17 A2987 RMK A01 T01900170  RH  088%=      5-min Rain = 0
KUM1 200948Z 19004KT 19/17 A2987 RMK A01 T01900169  RH  088%=      5-min Rain = 0
KUM1 200949Z 19004KT 19/17 A2987 RMK A01 T01890169  RH  088%=      5-min Rain = 0
KUM1 200950Z 20003KT 19/17 A2987 RMK A01 T01890169  RH  088%=      5-min Rain = 0
KUM1 200951Z 20004KT 19/17 A2987 RMK A01 T01880168  RH  088%=      5-min Rain = 0
KUM1 200952Z 21003KT 19/17 A2987 RMK A01 T01880168  RH  088%=      5-min Rain = 0
KUM1 200953Z 20003KT 19/17 A2987 RMK A01 T01870167  RH  088%=      5-min Rain = 0
KUM1 200954Z 21003KT 19/17 A2987 RMK A01 T01870167  RH  089%=      5-min Rain = 0
KUM1 200955Z 21003KT 19/17 A2987 RMK A01 T01860167  RH  089%=      5-min Rain = 0
KUM1 200956Z 21002KT 19/17 A2987 RMK A01 T01850166  RH  089%=      5-min Rain = 0
KUM1 200957Z 22003KT 19/17 A2987 RMK A01 T01850167  RH  089%=      5-min Rain = 0
KUM1 200958Z 22002KT 19/17 A2987 RMK A01 T01850168  RH  090%=      5-min Rain = 0
KUM1 200959Z 21001KT 19/17 A2987 RMK A01 T01860168  RH  090%=      5-min Rain = 0
KUM1 201000Z 24001KT 19/17 A2987 RMK A01 T01850168  RH  089%=      5-min Rain = 0
KUM1 201001Z 24001KT 19/17 A2987 RMK A01 T01850165  RH  088%=      5-min Rain = 0
KUM1 201002Z 24001KT 18/16 A2987 RMK A01 T01840164  RH  088%=      5-min Rain = 0
KUM1 201003Z 22002KT 18/16 A2987 RMK A01 T01830164  RH  089%=      5-min Rain = 0
KUM1 201004Z 22001KT 18/16 A2987 RMK A01 T01820164  RH  089%=      5-min Rain = 0
KUM1 201005Z 21001KT 18/16 A2987 RMK A01 T01810162  RH  089%=      5-min Rain = 0
KUM1 201006Z 21001KT 18/16 A2987 RMK A01 T01800161  RH  088%=      5-min Rain = 0
KUM1 201007Z 19001KT 18/16 A2987 RMK A01 T01790162  RH  089%=      5-min Rain = 0
KUM1 201008Z 17002KT 18/16 A2987 RMK A01 T01780162  RH  090%=      5-min Rain = 0
KUM1 201009Z 17002KT 18/17 A2987 RMK A01 T01780165  RH  092%=      5-min Rain = 0
KUM1 201010Z 18002KT 18/17 A2987 RMK A01 T01780166  RH  092%=      5-min Rain = 0
KUM1 201011Z 18002KT 18/17 A2987 RMK A01 T01790167  RH  092%=      5-min Rain = 0
KUM1 201012Z 18003KT 18/17 A2987 RMK A01 T01800166  RH  092%=      5-min Rain = 0
KUM1 201013Z 18003KT 18/17 A2987 RMK A01 T01800165  RH  091%=      5-min Rain = 0
KUM1 201014Z 19003KT 18/17 A2987 RMK A01 T01800165  RH  091%=      5-min Rain = 0
KUM1 201015Z 18002KT 18/16 A2987 RMK A01 T01800162  RH  089%=      5-min Rain = 0
KUM1 201016Z 19002KT 18/16 A2987 RMK A01 T01790161  RH  089%=      5-min Rain = 0
KUM1 201017Z 19003KT 18/16 A2987 RMK A01 T01770160  RH  089%=      5-min Rain = 0
KUM1 201018Z 19003KT 18/16 A2987 RMK A01 T01760158  RH  089%=      5-min Rain = 0
KUM1 201019Z 18003KT 18/16 A2987 RMK A01 T01750158  RH  089%=      5-min Rain = 0
KUM1 201020Z 18003KT 17/16 A2987 RMK A01 T01740156  RH  089%=      5-min Rain = 0
KUM1 201021Z 18003KT 17/16 A2987 RMK A01 T01720155  RH  090%=      5-min Rain = 0
KUM1 201022Z 18003KT 17/16 A2987 RMK A01 T01720157  RH  091%=      5-min Rain = 0
KUM1 201023Z 18002KT 17/16 A2987 RMK A01 T01710156  RH  091%=      5-min Rain = 0
KUM1 201024Z 18002KT 17/16 A2987 RMK A01 T01700155  RH  091%=      5-min Rain = 0
KUM1 201025Z 18002KT 17/16 A2987 RMK A01 T01690155  RH  091%=      5-min Rain = 0
KUM1 201026Z 17002KT 17/15 A2987 RMK A01 T01680154  RH  091%=      5-min Rain = 0
KUM1 201027Z 17002KT 17/15 A2987 RMK A01 T01680154  RH  092%=      5-min Rain = 0
KUM1 201028Z 17002KT 17/16 A2987 RMK A01 T01670156  RH  093%=      5-min Rain = 0
KUM1 201029Z 17002KT 17/16 A2987 RMK A01 T01670157  RH  093%=      5-min Rain = 0
KUM1 201030Z 17002KT 17/16 A2987 RMK A01 T01680157  RH  094%=      5-min Rain = 0
KUM1 201031Z 18002KT 17/16 A2987 RMK A01 T01680158  RH  094%=      5-min Rain = 0
KUM1 201032Z 18001KT 17/16 A2987 RMK A01 T01680159  RH  094%=      5-min Rain = 0
KUM1 201033Z 18000KT 17/16 A2987 RMK A01 T01680159  RH  094%=      5-min Rain = 0
KUM1 201034Z 00000KT 17/16 A2987 RMK A01 T01670155  RH  092%=      5-min Rain = 0
KUM1 201035Z 00000KT 17/15 A2987 RMK A01 T01660153  RH  092%=      5-min Rain = 0
KUM1 201036Z 00000KT 16/15 A2987 RMK A01 T01640150  RH  092%=      5-min Rain = 0
KUM1 201037Z 00000KT 16/15 A2987 RMK A01 T01640152  RH  093%=      5-min Rain = 0
KUM1 201038Z 00000KT 16/15 A2987 RMK A01 T01640153  RH  093%=      5-min Rain = 0
KUM1 201039Z 00000KT 16/15 A2987 RMK A01 T01640152  RH  092%=      5-min Rain = 0
KUM1 201040Z 00000KT 16/15 A2987 RMK A01 T01620149  RH  092%=      5-min Rain = 0
KUM1 201041Z 00000KT 16/15 A2987 RMK A01 T01620149  RH  092%=      5-min Rain = 0
KUM1 201042Z 00000KT 16/15 A2987 RMK A01 T01610147  RH  092%=      5-min Rain = 0
KUM1 201043Z 00000KT 16/14 A2987 RMK A01 T01590144  RH  091%=      5-min Rain = 0
KUM1 201044Z 00000KT 16/14 A2987 RMK A01 T01580144  RH  091%=      5-min Rain = 0
KUM1 201045Z 00000KT 16/15 A2987 RMK A01 T01570145  RH  092%=      5-min Rain = 0
KUM1 201046Z 00000KT 16/15 A2987 RMK A01 T01580149  RH  094%=      5-min Rain = 0
KUM1 201047Z 23000KT 16/15 A2987 RMK A01 T01590151  RH  095%=      5-min Rain = 0
KUM1 201048Z 00000KT 16/15 A2987 RMK A01 T01590151  RH  095%=      5-min Rain = 0
KUM1 201049Z 23000KT 16/15 A2987 RMK A01 T01590151  RH  095%=      5-min Rain = 0
KUM1 201050Z 23000KT 16/15 A2987 RMK A01 T01590152  RH  095%=      5-min Rain = 0
KUM1 201051Z 23001KT 16/15 A2987 RMK A01 T01600154  RH  096%=      5-min Rain = 0
KUM1 201052Z 23001KT 16/16 A2987 RMK A01 T01630157  RH  097%=      5-min Rain = 0
KUM1 201053Z 22001KT 16/16 A2987 RMK A01 T01640159  RH  097%=      5-min Rain = 0
KUM1 201054Z 22000KT 16/16 A2987 RMK A01 T01630156  RH  096%=      5-min Rain = 0
KUM1 201055Z 00000KT 16/15 A2987 RMK A01 T01610153  RH  095%=      5-min Rain = 0
KUM1 201056Z 22000KT 16/15 A2987 RMK A01 T01600152  RH  095%=      5-min Rain = 0
KUM1 201057Z 22001KT 16/15 A2987 RMK A01 T01600152  RH  095%=      5-min Rain = 0
KUM1 201058Z 22001KT 16/16 A2987 RMK A01 T01620156  RH  096%=      5-min Rain = 0
KUM1 201059Z 22001KT 16/16 A2987 RMK A01 T01640159  RH  097%=      5-min Rain = 0
KUM1 201100Z 22001KT 17/16 A2987 RMK A01 T01670163  RH  098%=      5-min Rain = 0
KUM1 201101Z 21001KT 17/16 A2987 RMK A01 T01680164  RH  098%=      5-min Rain = 0
KUM1 201102Z 21001KT 17/16 A2987 RMK A01 T01680164  RH  098%=      5-min Rain = 0
KUM1 201103Z 20001KT 17/16 A2987 RMK A01 T01660162  RH  097%=      5-min Rain = 0
KUM1 201104Z 20001KT 16/16 A2987 RMK A01 T01640159  RH  096%=      5-min Rain = 0
KUM1 201105Z 20001KT 16/16 A2987 RMK A01 T01640158  RH  096%=      5-min Rain = 0
KUM1 201106Z 20001KT 16/16 A2987 RMK A01 T01640159  RH  097%=      5-min Rain = 0
KUM1 201107Z 20001KT 17/16 A2987 RMK A01 T01650161  RH  097%=      5-min Rain = 0
KUM1 201108Z 20001KT 17/16 A2987 RMK A01 T01660162  RH  098%=      5-min Rain = 0
KUM1 201109Z 19001KT 17/16 A2987 RMK A01 T01670163  RH  098%=      5-min Rain = 0
KUM1 201110Z 19001KT 17/16 A2987 RMK A01 T01670163  RH  098%=      5-min Rain = 0
KUM1 201111Z 19001KT 17/16 A2987 RMK A01 T01670163  RH  098%=      5-min Rain = 0
KUM1 201112Z 18001KT 17/16 A2987 RMK A01 T01670164  RH  098%=      5-min Rain = 0
KUM1 201113Z 18001KT 17/16 A2987 RMK A01 T01670163  RH  098%=      5-min Rain = 0
KUM1 201114Z 18001KT 17/16 A2987 RMK A01 T01670163  RH  098%=      5-min Rain = 0
KUM1 201115Z 18001KT 17/16 A2987 RMK A01 T01670164  RH  098%=      5-min Rain = 0
KUM1 201116Z 18001KT 17/16 A2987 RMK A01 T01670164  RH  098%=      5-min Rain = 0
KUM1 201117Z 18001KT 17/16 A2987 RMK A01 T01670164  RH  098%=      5-min Rain = 0
KUM1 201118Z 18001KT 17/16 A2987 RMK A01 T01670164  RH  098%=      5-min Rain = 0
KUM1 201119Z 18001KT 17/16 A2987 RMK A01 T01670164  RH  098%=      5-min Rain = 0
KUM1 201120Z 18002KT 17/17 A2987 RMK A01 T01680165  RH  098%=      5-min Rain = 0
KUM1 201121Z 17002KT 17/17 A2987 RMK A01 T01680166  RH  098%=      5-min Rain = 0
KUM1 201122Z 17002KT 17/17 A2987 RMK A01 T01690166  RH  098%=      5-min Rain = 0
KUM1 201123Z 16003KT 17/17 A2987 RMK A01 T01690166  RH  098%=      5-min Rain = 0
KUM1 201124Z 16003KT 17/17 A2987 RMK A01 T01680166  RH  098%=      5-min Rain = 0
KUM1 201125Z 17003KT 17/17 A2987 RMK A01 T01690166  RH  098%=      5-min Rain = 0
KUM1 201126Z 17003KT 17/17 A2987 RMK A01 T01690166  RH  098%=      5-min Rain = 0
KUM1 201127Z 17003KT 17/17 A2987 RMK A01 T01680165  RH  098%=      5-min Rain = 0
KUM1 201128Z 17003KT 17/16 A2987 RMK A01 T01670164  RH  098%=      5-min Rain = 0
KUM1 201129Z 17003KT 17/16 A2987 RMK A01 T01670164  RH  098%=      5-min Rain = 0
KUM1 201130Z 17003KT 17/17 A2987 RMK A01 T01680165  RH  098%=      5-min Rain = 0
KUM1 201131Z 18003KT 17/17 A2987 RMK A01 T01690166  RH  098%=      5-min Rain = 0
KUM1 201132Z 18003KT 17/17 A2987 RMK A01 T01690166  RH  098%=      5-min Rain = 0
KUM1 201133Z 18003KT 17/16 A2987 RMK A01 T01680164  RH  098%=      5-min Rain = 0
KUM1 201134Z 18003KT 17/16 A2987 RMK A01 T01650161  RH  097%=      5-min Rain = 0
KUM1 201135Z 18003KT 16/16 A2987 RMK A01 T01640160  RH  097%=      5-min Rain = 0
KUM1 201136Z 18003KT 16/16 A2987 RMK A01 T01640160  RH  097%=      5-min Rain = 0
KUM1 201137Z 18003KT 17/16 A2987 RMK A01 T01650161  RH  098%=      5-min Rain = 0
KUM1 201138Z 18003KT 17/16 A2987 RMK A01 T01650162  RH  098%=      5-min Rain = 0
KUM1 201139Z 19004KT 17/16 A2987 RMK A01 T01650162  RH  098%=      5-min Rain = 0
KUM1 201140Z 19004KT 17/16 A2987 RMK A01 T01650161  RH  097%=      5-min Rain = 0
KUM1 201141Z 19004KT 16/16 A2987 RMK A01 T01640160  RH  097%=      5-min Rain = 0
KUM1 201142Z 19005KT 16/16 A2987 RMK A01 T01630159  RH  097%=      5-min Rain = 0
KUM1 201143Z 20005KT 16/16 A2987 RMK A01 T01620157  RH  097%=      5-min Rain = 0
KUM1 201144Z 20005KT 16/16 A2987 RMK A01 T01610156  RH  097%=      5-min Rain = 0
KUM1 201145Z 21004KT 16/16 A2987 RMK A01 T01600155  RH  097%=      5-min Rain = 0
KUM1 201146Z 21004KT 16/16 A2987 RMK A01 T01600155  RH  097%=      5-min Rain = 0
KUM1 201147Z 21003KT 16/16 A2987 RMK A01 T01600155  RH  097%=      5-min Rain = 0
KUM1 201148Z 21003KT 16/16 A2987 RMK A01 T01600155  RH  097%=      5-min Rain = 0
KUM1 201149Z 21002KT 16/16 A2987 RMK A01 T01600155  RH  097%=      5-min Rain = 0
KUM1 201150Z 20002KT 16/16 A2987 RMK A01 T01600155  RH  097%=      5-min Rain = 0
KUM1 201151Z 20002KT 16/16 A2987 RMK A01 T01600155  RH  097%=      5-min Rain = 0
KUM1 201152Z 19002KT 16/16 A2987 RMK A01 T01600155  RH  096%=      5-min Rain = 0
KUM1 201153Z 18002KT 16/16 A2987 RMK A01 T01600155  RH  096%=      5-min Rain = 0
KUM1 201154Z 19002KT 16/16 A2987 RMK A01 T01610156  RH  097%=      5-min Rain = 0
KUM1 201155Z 19002KT 16/16 A2987 RMK A01 T01610156  RH  097%=      5-min Rain = 0
KUM1 201156Z 19002KT 16/16 A2987 RMK A01 T01620157  RH  097%=      5-min Rain = 0
KUM1 201157Z 19003KT 16/16 A2987 RMK A01 T01620157  RH  097%=      5-min Rain = 0
KUM1 201158Z 19003KT 16/16 A2987 RMK A01 T01620156  RH  097%=      5-min Rain = 0
KUM1 201159Z 18003KT 16/16 A2987 RMK A01 T01620157  RH  096%=      5-min Rain = 0
KUM1 201200Z 18003KT 16/16 A2987 RMK A01 T01620157  RH  096%=      5-min Rain = 0
KUM1 201201Z 18003KT 16/16 A2987 RMK A01 T01630157  RH  096%=      5-min Rain = 0
KUM1 201202Z 18004KT 16/16 A2987 RMK A01 T01630157  RH  096%=      5-min Rain = 0
KUM1 201203Z 19004KT 16/16 A2987 RMK A01 T01640157  RH  096%=      5-min Rain = 0
KUM1 201204Z 19004KT 16/16 A2987 RMK A01 T01640157  RH  096%=      5-min Rain = 0
KUM1 201205Z 19004KT 16/16 A2987 RMK A01 T01640157  RH  096%=      5-min Rain = 0
KUM1 201206Z 19004KT 16/16 A2987 RMK A01 T01640157  RH  096%=      5-min Rain = 0
KUM1 201207Z 19004KT 17/16 A2987 RMK A01 T01650158  RH  096%=      5-min Rain = 0
KUM1 201208Z 19004KT 17/16 A2988 RMK A01 T01650158  RH  096%=      5-min Rain = 0
KUM1 201209Z 18004KT 17/16 A2988 RMK A01 T01650158  RH  095%=      5-min Rain = 0
KUM1 201210Z 18004KT 17/16 A2988 RMK A01 T01660158  RH  095%=      5-min Rain = 0
KUM1 201211Z 18004KT 17/16 A2988 RMK A01 T01660158  RH  095%=      5-min Rain = 0
KUM1 201212Z 18004KT 17/16 A2988 RMK A01 T01660158  RH  095%=      5-min Rain = 0
KUM1 201213Z 17004KT 17/16 A2988 RMK A01 T01670158  RH  094%=      5-min Rain = 0
KUM1 201214Z 17004KT 17/16 A2988 RMK A01 T01670157  RH  094%=      5-min Rain = 0
KUM1 201215Z 17004KT 17/16 A2988 RMK A01 T01670158  RH  094%=      5-min Rain = 0
KUM1 201216Z 17004KT 17/16 A2988 RMK A01 T01680159  RH  094%=      5-min Rain = 0
KUM1 201217Z 17004KT 17/16 A2988 RMK A01 T01680159  RH  094%=      5-min Rain = 0
KUM1 201218Z 17004KT 17/16 A2988 RMK A01 T01680159  RH  094%=      5-min Rain = 0
KUM1 201219Z 17004KT 17/16 A2988 RMK A01 T01690159  RH  094%=      5-min Rain = 0
KUM1 201220Z 17004KT 17/16 A2988 RMK A01 T01690158  RH  093%=      5-min Rain = 0
KUM1 201221Z 17004KT 17/16 A2988 RMK A01 T01690159  RH  093%=      5-min Rain = 0
KUM1 201222Z 16005KT 17/16 A2988 RMK A01 T01700160  RH  094%=      5-min Rain = 0
KUM1 201223Z 16005KT 17/16 A2988 RMK A01 T01710161  RH  094%=      5-min Rain = 0
KUM1 201224Z 16005KT 17/16 A2988 RMK A01 T01720163  RH  094%=      5-min Rain = 0
KUM1 201225Z 17005KT 17/16 A2988 RMK A01 T01730164  RH  094%=      5-min Rain = 0
KUM1 201226Z 17005KT 17/17 A2988 RMK A01 T01740165  RH  094%=      5-min Rain = 0
KUM1 201227Z 17005KT 18/17 A2988 RMK A01 T01750166  RH  094%=      5-min Rain = 0
KUM1 201228Z 17005KT 18/17 A2988 RMK A01 T01770168  RH  095%=      5-min Rain = 0
KUM1 201229Z 17005KT 18/17 A2988 RMK A01 T01780170  RH  095%=      5-min Rain = 0
KUM1 201230Z 17005KT 18/17 A2988 RMK A01 T01790170  RH  094%=      5-min Rain = 0
KUM1 201231Z 17005KT 18/17 A2988 RMK A01 T01810171  RH  094%=      5-min Rain = 0
KUM1 201232Z 18004KT 18/17 A2988 RMK A01 T01820172  RH  094%=      5-min Rain = 0
KUM1 201233Z 18004KT 18/17 A2988 RMK A01 T01830172  RH  094%=      5-min Rain = 0
KUM1 201234Z 18004KT 18/17 A2988 RMK A01 T01840173  RH  093%=      5-min Rain = 0
KUM1 201235Z 18004KT 18/17 A2988 RMK A01 T01840173  RH  093%=      5-min Rain = 0
KUM1 201236Z 18004KT 19/17 A2988 RMK A01 T01850173  RH  093%=      5-min Rain = 0
KUM1 201237Z 19003KT 19/17 A2988 RMK A01 T01860174  RH  093%=      5-min Rain = 0
KUM1 201238Z 18004KT 19/18 A2988 RMK A01 T01870175  RH  092%=      5-min Rain = 0
KUM1 201239Z 18004KT 19/18 A2988 RMK A01 T01880175  RH  092%=      5-min Rain = 0
KUM1 201240Z 18004KT 19/18 A2988 RMK A01 T01880175  RH  092%=      5-min Rain = 0
KUM1 201241Z 18004KT 19/17 A2988 RMK A01 T01890174  RH  091%=      5-min Rain = 0
KUM1 201242Z 18003KT 19/17 A2988 RMK A01 T01890174  RH  091%=      5-min Rain = 0
KUM1 201243Z 18003KT 19/18 A2988 RMK A01 T01900175  RH  091%=      5-min Rain = 0
KUM1 201244Z 19003KT 19/18 A2988 RMK A01 T01900175  RH  091%=      5-min Rain = 0
KUM1 201245Z 18003KT 19/18 A2988 RMK A01 T01910175  RH  091%=      5-min Rain = 0
KUM1 201246Z 18003KT 19/18 A2988 RMK A01 T01910176  RH  091%=      5-min Rain = 0
KUM1 201247Z 18003KT 19/18 A2988 RMK A01 T01920176  RH  090%=      5-min Rain = 0
KUM1 201248Z 18003KT 19/18 A2988 RMK A01 T01920176  RH  090%=      5-min Rain = 0
KUM1 201249Z 18003KT 19/18 A2988 RMK A01 T01930176  RH  090%=      5-min Rain = 0
KUM1 201250Z 18003KT 19/18 A2988 RMK A01 T01930176  RH  090%=      5-min Rain = 0
KUM1 201251Z 18003KT 19/18 A2988 RMK A01 T01940176  RH  090%=      5-min Rain = 0
KUM1 201252Z 18004KT 20/18 A2988 RMK A01 T01950177  RH  089%=      5-min Rain = 0
KUM1 201253Z 17003KT 20/18 A2988 RMK A01 T01950177  RH  089%=      5-min Rain = 0
KUM1 201254Z 18004KT 20/18 A2988 RMK A01 T01950177  RH  089%=      5-min Rain = 0
KUM1 201255Z 18004KT 20/18 A2988 RMK A01 T01950176  RH  088%=      5-min Rain = 0
KUM1 201256Z 19003KT 20/18 A2988 RMK A01 T01960177  RH  089%=      5-min Rain = 0
KUM1 201257Z 19003KT 20/18 A2988 RMK A01 T01960176  RH  088%=      5-min Rain = 0
KUM1 201258Z 19003KT 20/18 A2988 RMK A01 T01960177  RH  088%=      5-min Rain = 0
KUM1 201259Z 19004KT 20/18 A2988 RMK A01 T01970178  RH  089%=      5-min Rain = 0
KUM1 201300Z 19004KT 20/18 A2988 RMK A01 T01980177  RH  088%=      5-min Rain = 0
KUM1 201301Z 20003KT 20/18 A2988 RMK A01 T01990177  RH  088%=      5-min Rain = 0
KUM1 201302Z 20004KT 20/18 A2988 RMK A01 T01990178  RH  088%=      5-min Rain = 0
KUM1 201303Z 20003KT 20/18 A2988 RMK A01 T02000177  RH  087%=      5-min Rain = 0
KUM1 201304Z 20003KT 20/18 A2988 RMK A01 T02000178  RH  087%=      5-min Rain = 0
KUM1 201305Z 21004KT 20/18 A2988 RMK A01 T02010180  RH  088%=      5-min Rain = 0
KUM1 201306Z 20004KT 20/18 A2988 RMK A01 T02020179  RH  086%=      5-min Rain = 0
KUM1 201307Z 21005KT 20/18 A2988 RMK A01 T02020178  RH  086%=      5-min Rain = 0
KUM1 201308Z 21005KT 20/18 A2988 RMK A01 T02030178  RH  085%=      5-min Rain = 0
KUM1 201309Z 21005KT 20/18 A2988 RMK A01 T02030178  RH  085%=      5-min Rain = 0
KUM1 201310Z 21004KT 20/18 A2988 RMK A01 T02040178  RH  085%=      5-min Rain = 0
KUM1 201311Z 21004KT 20/18 A2987 RMK A01 T02040179  RH  086%=      5-min Rain = 0
KUM1 201312Z 21005KT 21/18 A2987 RMK A01 T02050180  RH  085%=      5-min Rain = 0
KUM1 201313Z 22006KT 21/18 A2987 RMK A01 T02060180  RH  085%=      5-min Rain = 0
KUM1 201314Z 22005KT 21/18 A2987 RMK A01 T02070177  RH  083%=      5-min Rain = 0
KUM1 201315Z 22005KT 21/18 A2987 RMK A01 T02070178  RH  083%=      5-min Rain = 0
KUM1 201316Z 22006KT 21/18 A2987 RMK A01 T02080178  RH  083%=      5-min Rain = 0
KUM1 201317Z 22006KT 21/18 A2987 RMK A01 T02090177  RH  082%=      5-min Rain = 0
KUM1 201318Z 23006KT 21/18 A2987 RMK A01 T02090178  RH  082%=      5-min Rain = 0
KUM1 201319Z 22006KT 21/18 A2987 RMK A01 T02100178  RH  082%=      5-min Rain = 0
KUM1 201320Z 21006KT 21/18 A2987 RMK A01 T02100178  RH  082%=      5-min Rain = 0
KUM1 201321Z 21007KT 21/18 A2987 RMK A01 T02100178  RH  082%=      5-min Rain = 0
KUM1 201322Z 21005KT 21/18 A2987 RMK A01 T02110178  RH  082%=      5-min Rain = 0
KUM1 201323Z 22006KT 21/18 A2988 RMK A01 T02120179  RH  081%=      5-min Rain = 0
KUM1 201324Z 21005KT 21/18 A2988 RMK A01 T02120178  RH  081%=      5-min Rain = 0
KUM1 201325Z 22005KT 21/18 A2987 RMK A01 T02130179  RH  081%=      5-min Rain = 0
KUM1 201326Z 22005KT 21/18 A2988 RMK A01 T02140180  RH  081%=      5-min Rain = 0
KUM1 201327Z 22005KT 22/18 A2987 RMK A01 T02150179  RH  080%=      5-min Rain = 0
KUM1 201328Z 23004KT 22/18 A2987 RMK A01 T02160179  RH  079%=      5-min Rain = 0
KUM1 201329Z 22004KT 22/18 A2988 RMK A01 T02180180  RH  079%=      5-min Rain = 0
KUM1 201330Z 22007KT 22/18 A2988 RMK A01 T02200179  RH  078%=      5-min Rain = 0
KUM1 201331Z 22007KT 22/18 A2988 RMK A01 T02210177  RH  076%=      5-min Rain = 0
KUM1 201332Z 22007KT 22/18 A2988 RMK A01 T02210177  RH  076%=      5-min Rain = 0
KUM1 201333Z 22007KT 22/18 A2988 RMK A01 T02210176  RH  076%=      5-min Rain = 0
KUM1 201334Z 22008KT 22/18 A2988 RMK A01 T02210175  RH  075%=      5-min Rain = 0
KUM1 201335Z 23007KT 22/18 A2988 RMK A01 T02210175  RH  075%=      5-min Rain = 0
KUM1 201336Z 22007KT 22/18 A2988 RMK A01 T02220176  RH  075%=      5-min Rain = 0
KUM1 201337Z 22006KT 22/18 A2988 RMK A01 T02230177  RH  075%=      5-min Rain = 0
KUM1 201338Z 23007KT 22/18 A2988 RMK A01 T02240176  RH  074%=      5-min Rain = 0
KUM1 201339Z 23007KT 23/17 A2988 RMK A01 T02250174  RH  073%=      5-min Rain = 0
KUM1 201340Z 22007KT 23/17 A2987 RMK A01 T02250174  RH  073%=      5-min Rain = 0
KUM1 201341Z 22007KT 23/18 A2987 RMK A01 T02260175  RH  073%=      5-min Rain = 0
KUM1 201342Z 23006KT 23/18 A2987 RMK A01 T02260175  RH  073%=      5-min Rain = 0
KUM1 201343Z 23008KT 23/18 A2987 RMK A01 T02270175  RH  072%=      5-min Rain = 0
KUM1 201344Z 23008KT 23/17 A2987 RMK A01 T02280174  RH  072%=      5-min Rain = 0
KUM1 201345Z 23008KT 23/17 A2987 RMK A01 T02280174  RH  072%=      5-min Rain = 0
KUM1 201346Z 23006KT 23/17 A2987 RMK A01 T02280174  RH  072%=      5-min Rain = 0
KUM1 201347Z 23008KT 23/18 A2987 RMK A01 T02290175  RH  071%=      5-min Rain = 0
KUM1 201348Z 23007KT 23/17 A2987 RMK A01 T02300173  RH  070%=      5-min Rain = 0
KUM1 201349Z 23006KT 23/17 A2987 RMK A01 T02300173  RH  070%=      5-min Rain = 0
KUM1 201350Z 22008KT 23/18 A2987 RMK A01 T02300175  RH  071%=      5-min Rain = 0
KUM1 201351Z 23008KT 23/18 A2987 RMK A01 T02310175  RH  070%=      5-min Rain = 0
KUM1 201352Z 23006KT 23/18 A2987 RMK A01 T02320175  RH  070%=      5-min Rain = 0
KUM1 201353Z 23007KT 23/18 A2987 RMK A01 T02320175  RH  070%=      5-min Rain = 0
KUM1 201354Z 23006KT 23/18 A2987 RMK A01 T02320175  RH  070%=      5-min Rain = 0
KUM1 201355Z 23006KT 23/18 A2987 RMK A01 T02330176  RH  070%=      5-min Rain = 0
KUM1 201356Z 24005KT 23/18 A2987 RMK A01 T02340177  RH  070%=      5-min Rain = 0
KUM1 201357Z 24007KT 24/18 A2987 RMK A01 T02360175  RH  069%=      5-min Rain = 0
KUM1 201358Z 23006KT 24/18 A2987 RMK A01 T02360175  RH  069%=      5-min Rain = 0
KUM1 201359Z 24006KT 24/18 A2987 RMK A01 T02360176  RH  069%=      5-min Rain = 0
KUM1 201400Z 24006KT 24/18 A2987 RMK A01 T02370176  RH  069%=      5-min Rain = 0
KUM1 201401Z 23005KT 24/18 A2987 RMK A01 T02390177  RH  068%=      5-min Rain = 0
KUM1 201402Z 23005KT 24/18 A2987 RMK A01 T02410177  RH  067%=      5-min Rain = 0
KUM1 201403Z 24007KT 24/17 A2987 RMK A01 T02430174  RH  065%=      5-min Rain = 0
KUM1 201404Z 24005KT 24/18 A2987 RMK A01 T02430175  RH  066%=      5-min Rain = 0
KUM1 201405Z 24007KT 24/17 A2987 RMK A01 T02430173  RH  065%=      5-min Rain = 0
KUM1 201406Z 23007KT 25/17 A2987 RMK A01 T02450171  RH  063%=      5-min Rain = 0
KUM1 201407Z 24006KT 25/17 A2987 RMK A01 T02450169  RH  063%=      5-min Rain = 0
KUM1 201408Z 25007KT 25/17 A2987 RMK A01 T02450169  RH  062%=      5-min Rain = 0
KUM1 201409Z 25007KT 25/17 A2987 RMK A01 T02460166  RH  061%=      5-min Rain = 0
KUM1 201410Z 25007KT 25/17 A2987 RMK A01 T02470166  RH  061%=      5-min Rain = 0
KUM1 201411Z 24007KT 25/17 A2987 RMK A01 T02490165  RH  059%=      5-min Rain = 0
KUM1 201412Z 23006KT 25/17 A2987 RMK A01 T02500167  RH  060%=      5-min Rain = 0
KUM1 201413Z 24004KT 25/17 A2987 RMK A01 T02510170  RH  061%=      5-min Rain = 0
KUM1 201414Z 25007KT 25/17 A2987 RMK A01 T02510168  RH  060%=      5-min Rain = 0
KUM1 201415Z 25007KT 25/16 A2987 RMK A01 T02530164  RH  058%=      5-min Rain = 0
KUM1 201416Z 26008KT 26/17 A2987 RMK A01 T02550166  RH  058%=      5-min Rain = 0
KUM1 201417Z 26008KT 26/17 A2987 RMK A01 T02560166  RH  057%=      5-min Rain = 0
KUM1 201418Z 25007KT 26/17 A2987 RMK A01 T02550169  RH  059%=      5-min Rain = 0
KUM1 201419Z 24006KT 25/17 A2987 RMK A01 T02540168  RH  059%=      5-min Rain = 0
KUM1 201420Z 25007KT 26/17 A2987 RMK A01 T02550165  RH  057%=      5-min Rain = 0
KUM1 201421Z 25009KT 26/16 A2987 RMK A01 T02570163  RH  056%=      5-min Rain = 0
KUM1 201422Z 24008KT 26/16 A2987 RMK A01 T02580163  RH  056%=      5-min Rain = 0
KUM1 201423Z 24008KT 26/16 A2987 RMK A01 T02580163  RH  056%=      5-min Rain = 0
KUM1 201424Z 25007KT 26/16 A2987 RMK A01 T02590164  RH  056%=      5-min Rain = 0
KUM1 201425Z 25009KT 26/16 A2987 RMK A01 T02610163  RH  055%=      5-min Rain = 0
KUM1 201426Z 25008KT 26/16 A2987 RMK A01 T02620161  RH  054%=      5-min Rain = 0
KUM1 201427Z 26008KT 26/16 A2987 RMK A01 T02630161  RH  054%=      5-min Rain = 0
KUM1 201428Z 25007KT 26/16 A2987 RMK A01 T02630161  RH  053%=      5-min Rain = 0
KUM1 201429Z 25008KT 26/17 A2987 RMK A01 T02630165  RH  055%=      5-min Rain = 0
KUM1 201430Z 24008KT 26/16 A2987 RMK A01 T02640164  RH  054%=      5-min Rain = 0
KUM1 201431Z 26007KT 26/17 A2987 RMK A01 T02640165  RH  054%=      5-min Rain = 0
KUM1 201432Z 25007KT 26/17 A2987 RMK A01 T02640166  RH  055%=      5-min Rain = 0
KUM1 201433Z 26008KT 27/16 A2987 RMK A01 T02670161  RH  052%=      5-min Rain = 0
KUM1 201434Z 26007KT 27/16 A2987 RMK A01 T02670164  RH  053%=      5-min Rain = 0
KUM1 201435Z 27006KT 27/16 A2987 RMK A01 T02680163  RH  053%=      5-min Rain = 0
KUM1 201436Z 26006KT 27/17 A2987 RMK A01 T02670165  RH  053%=      5-min Rain = 0
KUM1 201437Z 26007KT 27/16 A2987 RMK A01 T02680164  RH  053%=      5-min Rain = 0
KUM1 201438Z 26007KT 27/16 A2987 RMK A01 T02710162  RH  051%=      5-min Rain = 0
KUM1 201439Z 25006KT 27/16 A2987 RMK A01 T02720158  RH  050%=      5-min Rain = 0
KUM1 201440Z 25007KT 27/16 A2987 RMK A01 T02720160  RH  050%=      5-min Rain = 0
KUM1 201441Z 26007KT 27/16 A2987 RMK A01 T02730160  RH  050%=      5-min Rain = 0
KUM1 201442Z 26008KT 28/16 A2987 RMK A01 T02750157  RH  048%=      5-min Rain = 0
KUM1 201443Z 26008KT 28/16 A2987 RMK A01 T02750155  RH  048%=      5-min Rain = 0
KUM1 201444Z 26008KT 28/15 A2987 RMK A01 T02760153  RH  047%=      5-min Rain = 0
KUM1 201445Z 27007KT 28/15 A2987 RMK A01 T02770152  RH  046%=      5-min Rain = 0
KUM1 201446Z 26007KT 28/15 A2987 RMK A01 T02760154  RH  047%=      5-min Rain = 0
KUM1 201447Z 25005KT 28/16 A2987 RMK A01 T02760155  RH  048%=      5-min Rain = 0
KUM1 201448Z 24008KT 28/15 A2987 RMK A01 T02790154  RH  047%=      5-min Rain = 0
KUM1 201449Z 25006KT 28/15 A2987 RMK A01 T02800152  RH  046%=      5-min Rain = 0
KUM1 201450Z 26008KT 28/15 A2987 RMK A01 T02800152  RH  046%=      5-min Rain = 0
KUM1 201451Z 26007KT 28/15 A2987 RMK A01 T02810151  RH  045%=      5-min Rain = 0
KUM1 201452Z 24005KT 28/15 A2987 RMK A01 T02820153  RH  046%=      5-min Rain = 0
KUM1 201453Z 24007KT 28/16 A2987 RMK A01 T02840157  RH  046%=      5-min Rain = 0
KUM1 201454Z 24007KT 29/15 A2987 RMK A01 T02850154  RH  045%=      5-min Rain = 0
KUM1 201455Z 26007KT 29/16 A2987 RMK A01 T02860156  RH  045%=      5-min Rain = 0
KUM1 201456Z 26008KT 29/15 A2987 RMK A01 T02880153  RH  044%=      5-min Rain = 0
KUM1 201457Z 26008KT 29/15 A2987 RMK A01 T02890148  RH  042%=      5-min Rain = 0
KUM1 201458Z 25008KT 29/15 A2987 RMK A01 T02870150  RH  043%=      5-min Rain = 0
KUM1 201459Z 26006KT 29/15 A2987 RMK A01 T02860152  RH  044%=      5-min Rain = 0
KUM1 201500Z 26006KT 29/15 A2987 RMK A01 T02860153  RH  044%=      5-min Rain = 0
KUM1 201501Z 25006KT 29/15 A2987 RMK A01 T02870154  RH  044%=      5-min Rain = 0
KUM1 201502Z 25008KT 29/15 A2987 RMK A01 T02900150  RH  043%=      5-min Rain = 0
KUM1 201503Z 24008KT 29/15 A2987 RMK A01 T02910149  RH  042%=      5-min Rain = 0
KUM1 201504Z 24007KT 29/15 A2987 RMK A01 T02890149  RH  042%=      5-min Rain = 0
KUM1 201505Z 25008KT 29/15 A2987 RMK A01 T02890150  RH  043%=      5-min Rain = 0
KUM1 201506Z 25007KT 29/15 A2987 RMK A01 T02910151  RH  043%=      5-min Rain = 0
KUM1 201507Z 25006KT 29/15 A2987 RMK A01 T02920150  RH  042%=      5-min Rain = 0
KUM1 201508Z 27007KT 29/15 A2987 RMK A01 T02940149  RH  041%=      5-min Rain = 0
KUM1 201509Z 25007KT 30/15 A2987 RMK A01 T02970151  RH  041%=      5-min Rain = 0
KUM1 201510Z 24008KT 30/15 A2987 RMK A01 T02980149  RH  040%=      5-min Rain = 0
KUM1 201511Z 26008KT 30/15 A2987 RMK A01 T02990148  RH  040%=      5-min Rain = 0
KUM1 201512Z 26009KT 30/15 A2987 RMK A01 T02990145  RH  039%=      5-min Rain = 0
KUM1 201513Z 26007KT 30/15 A2987 RMK A01 T02990149  RH  040%=      5-min Rain = 0
KUM1 201514Z 26008KT 30/15 A2987 RMK A01 T03010151  RH  040%=      5-min Rain = 0
KUM1 201515Z 25010KT 30/15 A2987 RMK A01 T03010150  RH  040%=      5-min Rain = 0
KUM1 201516Z 25008KT 30/15 A2987 RMK A01 T03010149  RH  040%=      5-min Rain = 0
KUM1 201517Z 26008KT 30/15 A2987 RMK A01 T02990148  RH  040%=      5-min Rain = 0
KUM1 201518Z 27007KT 30/15 A2987 RMK A01 T02990147  RH  040%=      5-min Rain = 0
KUM1 201519Z 25007KT 30/15 A2987 RMK A01 T03000149  RH  040%=      5-min Rain = 0
KUM1 201520Z 26010KT 30/15 A2987 RMK A01 T03000148  RH  040%=      5-min Rain = 0
KUM1 201521Z 27007KT 30/15 A2987 RMK A01 T03010147  RH  039%=      5-min Rain = 0
KUM1 201522Z 28009KT 30/15 A2987 RMK A01 T03040146  RH  038%=      5-min Rain = 0
KUM1 201523Z 28008KT 31/15 A2987 RMK A01 T03060145  RH  038%=      5-min Rain = 0
KUM1 201524Z 27009KT 31/14 A2987 RMK A01 T03060141  RH  037%=      5-min Rain = 0
KUM1 201525Z 26010KT 31/14 A2987 RMK A01 T03050136  RH  036%=      5-min Rain = 0
KUM1 201526Z 26010KT 31/14 A2987 RMK A01 T03060136  RH  036%=      5-min Rain = 0
KUM1 201527Z 27008KT 31/14 A2987 RMK A01 T03070141  RH  036%=      5-min Rain = 0
KUM1 201528Z 27008KT 31/15 A2987 RMK A01 T03080146  RH  037%=      5-min Rain = 0
KUM1 201529Z 26008KT 31/15 A2987 RMK A01 T03090148  RH  038%=      5-min Rain = 0
KUM1 201530Z 25011KT 31/14 A2987 RMK A01 T03100138  RH  035%=      5-min Rain = 0
KUM1 201531Z 25010KT 31/14 A2987 RMK A01 T03110141  RH  035%=      5-min Rain = 0
KUM1 201532Z 25010KT 31/14 A2987 RMK A01 T03110141  RH  036%=      5-min Rain = 0
KUM1 201533Z 25010KT 31/14 A2987 RMK A01 T03080143  RH  036%=      5-min Rain = 0
KUM1 201534Z 25010KT 31/14 A2987 RMK A01 T03070144  RH  037%=      5-min Rain = 0
KUM1 201535Z 25012KT 31/15 A2987 RMK A01 T03080146  RH  037%=      5-min Rain = 0
KUM1 201536Z 25010KT 31/15 A2987 RMK A01 T03090146  RH  037%=      5-min Rain = 0
KUM1 201537Z 26008KT 31/15 A2987 RMK A01 T03100146  RH  037%=      5-min Rain = 0
KUM1 201538Z 26007KT 31/15 A2987 RMK A01 T03120148  RH  037%=      5-min Rain = 0
KUM1 201539Z 25010KT 31/15 A2987 RMK A01 T03130145  RH  036%=      5-min Rain = 0
KUM1 201540Z 25013KT 32/15 A2987 RMK A01 T03150145  RH  036%=      5-min Rain = 0
KUM1 201541Z 26007KT 32/15 A2987 RMK A01 T03150146  RH  036%=      5-min Rain = 0
KUM1 201542Z 25008G13KT 32/15 A2987 RMK A01 T03160149  RH  036%=      5-min Rain = 0
KUM1 201543Z 24009KT 32/15 A2987 RMK A01 T03180146  RH  036%=      5-min Rain = 0
KUM1 201544Z 25009KT 32/15 A2987 RMK A01 T03190146  RH  035%=      5-min Rain = 0
KUM1 201545Z 24008KT 32/15 A2987 RMK A01 T03190145  RH  035%=      5-min Rain = 0
KUM1 201546Z 24010KT 32/14 A2987 RMK A01 T03180144  RH  035%=      5-min Rain = 0
KUM1 201547Z 25011KT 32/14 A2987 RMK A01 T03170143  RH  035%=      5-min Rain = 0
KUM1 201548Z 25009KT 32/14 A2987 RMK A01 T03160143  RH  035%=      5-min Rain = 0
KUM1 201549Z 25007KT 32/15 A2987 RMK A01 T03160145  RH  036%=      5-min Rain = 0
KUM1 201550Z 25007KT 32/15 A2987 RMK A01 T03180147  RH  036%=      5-min Rain = 0
KUM1 201551Z 23007KT 32/14 A2987 RMK A01 T03190144  RH  035%=      5-min Rain = 0
KUM1 201552Z 26008G13KT 32/15 A2987 RMK A01 T03180146  RH  035%=      5-min Rain = 0
KUM1 201553Z 25006KT 32/15 A2987 RMK A01 T03190146  RH  035%=      5-min Rain = 0
KUM1 201554Z 25010KT 32/15 A2987 RMK A01 T03210147  RH  035%=      5-min Rain = 0
KUM1 201555Z 25007KT 32/14 A2987 RMK A01 T03210144  RH  034%=      5-min Rain = 0
KUM1 201556Z 26007KT 32/15 A2987 RMK A01 T03180145  RH  035%=      5-min Rain = 0
KUM1 201557Z 26007KT 32/15 A2987 RMK A01 T03210149  RH  035%=      5-min Rain = 0
KUM1 201558Z 25008KT 33/15 A2987 RMK A01 T03250148  RH  034%=      5-min Rain = 0
KUM1 201559Z 25007KT 33/15 A2987 RMK A01 T03260147  RH  034%=      5-min Rain = 0
KUM1 201600Z 26009KT 33/15 A2987 RMK A01 T03260146  RH  034%=      5-min Rain = 0
KUM1 201601Z 25008KT 33/14 A2987 RMK A01 T03280139  RH  032%=      5-min Rain = 0
KUM1 201602Z 26005KT 33/14 A2986 RMK A01 T03250135  RH  032%=      5-min Rain = 0
KUM1 201603Z 28007KT 32/14 A2986 RMK A01 T03220137  RH  033%=      5-min Rain = 0
KUM1 201604Z 26007KT 32/13 A2986 RMK A01 T03240130  RH  031%=      5-min Rain = 0
KUM1 201605Z 26007KT 33/13 A2986 RMK A01 T03270133  RH  031%=      5-min Rain = 0
KUM1 201606Z 26006KT 33/14 A2986 RMK A01 T03290137  RH  031%=      5-min Rain = 0
KUM1 201607Z 25007KT 33/14 A2987 RMK A01 T03280140  RH  032%=      5-min Rain = 0
KUM1 201608Z 28009KT 33/14 A2987 RMK A01 T03290139  RH  032%=      5-min Rain = 0
KUM1 201609Z 26008KT 33/13 A2987 RMK A01 T03320134  RH  030%=      5-min Rain = 0
KUM1 201610Z 26007KT 33/14 A2987 RMK A01 T03330136  RH  030%=      5-min Rain = 0
KUM1 201611Z 26006KT 33/13 A2987 RMK A01 T03320132  RH  030%=      5-min Rain = 0
KUM1 201612Z 25008KT 33/14 A2987 RMK A01 T03310140  RH  032%=      5-min Rain = 0
KUM1 201613Z 25006KT 33/14 A2986 RMK A01 T03340138  RH  031%=      5-min Rain = 0
KUM1 201614Z 25003KT 34/14 A2986 RMK A01 T03350140  RH  031%=      5-min Rain = 0
KUM1 201615Z 27006G12KT 34/14 A2986 RMK A01 T03360140  RH  031%=      5-min Rain = 0
KUM1 201616Z 27008KT 34/14 A2986 RMK A01 T03370136  RH  030%=      5-min Rain = 0
KUM1 201617Z 27009KT 34/13 A2986 RMK A01 T03390133  RH  029%=      5-min Rain = 0
KUM1 201618Z 27011KT 34/12 A2987 RMK A01 T03400121  RH  027%=      5-min Rain = 0
KUM1 201619Z 26008KT 34/12 A2987 RMK A01 T03380116  RH  026%=      5-min Rain = 0
KUM1 201620Z 25007KT 34/12 A2987 RMK A01 T03350121  RH  027%=      5-min Rain = 0
KUM1 201621Z 25010KT 33/12 A2986 RMK A01 T03340119  RH  027%=      5-min Rain = 0
KUM1 201622Z 25010KT 34/12 A2987 RMK A01 T03360121  RH  027%=      5-min Rain = 0
KUM1 201623Z 26009KT 34/13 A2987 RMK A01 T03370125  RH  028%=      5-min Rain = 0
KUM1 201624Z 27008KT 34/13 A2987 RMK A01 T03370131  RH  029%=      5-min Rain = 0
KUM1 201625Z 28008KT 34/13 A2986 RMK A01 T03370132  RH  029%=      5-min Rain = 0
KUM1 201626Z 28008KT 34/13 A2986 RMK A01 T03380134  RH  029%=      5-min Rain = 0
KUM1 201627Z 26010KT 34/12 A2986 RMK A01 T03410121  RH  026%=      5-min Rain = 0
KUM1 201628Z 24008KT 34/12 A2986 RMK A01 T03410120  RH  026%=      5-min Rain = 0
KUM1 201629Z 25009KT 34/13 A2986 RMK A01 T03410126  RH  027%=      5-min Rain = 0
KUM1 201630Z 26011KT 35/11 A2986 RMK A01 T03460109  RH  024%=      5-min Rain = 0
KUM1 201631Z 27008KT 35/10 A2986 RMK A01 T03480097  RH  022%=      5-min Rain = 0
KUM1 201632Z 26010KT 35/10 A2986 RMK A01 T03470099  RH  022%=      5-min Rain = 0
KUM1 201633Z 25009KT 35/08 A2986 RMK A01 T03470081  RH  019%=      5-min Rain = 0
KUM1 201634Z 26009KT 35/08 A2986 RMK A01 T03470079  RH  019%=      5-min Rain = 0
KUM1 201635Z 27009KT 35/08 A2986 RMK A01 T03480081  RH  019%=      5-min Rain = 0
KUM1 201641Z 25012G17KT 35/07 A2986 RMK A01 T03480074  RH  019%=      5-min Rain = 0
KUM1 201642Z 26011KT 35/08 A2986 RMK A01 T03500080  RH  019%=      5-min Rain = 0
KUM1 201643Z 26013KT 35/08 A2986 RMK A01 T03510080  RH  019%=      5-min Rain = 0
KUM1 201644Z 27011KT 35/08 A2986 RMK A01 T03490076  RH  019%=      5-min Rain = 0
KUM1 201645Z 25013KT 35/08 A2986 RMK A01 T03470079  RH  019%=      5-min Rain = 0
KUM1 201646Z 25011KT 35/08 A2986 RMK A01 T03470080  RH  019%=      5-min Rain = 0
KUM1 201647Z 25011KT 35/08 A2986 RMK A01 T03490076  RH  019%=      5-min Rain = 0
KUM1 201648Z 27011KT 35/08 A2986 RMK A01 T03480078  RH  019%=      5-min Rain = 0
KUM1 201649Z 28010KT 35/07 A2986 RMK A01 T03510069  RH  018%=      5-min Rain = 0
KUM1 201650Z 28011KT 35/07 A2986 RMK A01 T03540074  RH  018%=      5-min Rain = 0
KUM1 201651Z 29014KT 36/07 A2986 RMK A01 T03550069  RH  017%=      5-min Rain = 0
KUM1 201652Z 28013KT 35/07 A2986 RMK A01 T03540066  RH  017%=      5-min Rain = 0
KUM1 201653Z 28010KT 35/06 A2986 RMK A01 T03540064  RH  017%=      5-min Rain = 0
KUM1 201654Z 27012KT 36/07 A2986 RMK A01 T03570069  RH  017%=      5-min Rain = 0
KUM1 201655Z 27011KT 36/07 A2986 RMK A01 T03580071  RH  017%=      5-min Rain = 0
KUM1 201656Z 28012KT 36/07 A2986 RMK A01 T03580071  RH  017%=      5-min Rain = 0
KUM1 201657Z 28014KT 36/06 A2986 RMK A01 T03580061  RH  016%=      5-min Rain = 0
KUM1 201658Z 30012KT 36/06 A2986 RMK A01 T03570061  RH  016%=      5-min Rain = 0
KUM1 201659Z 29014KT 36/06 A2986 RMK A01 T03570062  RH  016%=      5-min Rain = 0
KUM1 201700Z 28013KT 36/06 A2986 RMK A01 T03570063  RH  016%=      5-min Rain = 0
KUM1 201701Z 25011KT 36/07 A2986 RMK A01 T03570066  RH  017%=      5-min Rain = 0
KUM1 201702Z 25014KT 36/07 A2986 RMK A01 T03560067  RH  017%=      5-min Rain = 0
KUM1 201703Z 25015KT 35/06 A2986 RMK A01 T03540061  RH  016%=      5-min Rain = 0
KUM1 201704Z 26013KT 35/06 A2986 RMK A01 T03540058  RH  016%=      5-min Rain = 0
KUM1 201705Z 25010KT 35/06 A2986 RMK A01 T03530056  RH  016%=      5-min Rain = 0
KUM1 201706Z 28010KT 36/06 A2986 RMK A01 T03550062  RH  016%=      5-min Rain = 0
KUM1 201707Z 27012G17KT 36/06 A2986 RMK A01 T03570062  RH  016%=      5-min Rain = 0
KUM1 201708Z 25011KT 36/06 A2986 RMK A01 T03570063  RH  016%=      5-min Rain = 0
KUM1 201709Z 24010KT 36/06 A2986 RMK A01 T03560060  RH  016%=      5-min Rain = 0
KUM1 201710Z 24008KT 36/06 A2986 RMK A01 T03550057  RH  016%=      5-min Rain = 0
KUM1 201711Z 24007KT 35/06 A2986 RMK A01 T03540062  RH  016%=      5-min Rain = 0
KUM1 201712Z 24009KT 36/06 A2986 RMK A01 T03560059  RH  016%=      5-min Rain = 0
KUM1 201713Z 25012KT 36/06 A2986 RMK A01 T03580061  RH  016%=      5-min Rain = 0
KUM1 201714Z 25011KT 36/06 A2986 RMK A01 T03580059  RH  016%=      5-min Rain = 0
KUM1 201715Z 25009KT 36/07 A2986 RMK A01 T03590065  RH  016%=      5-min Rain = 0
KUM1 201716Z 25007KT 36/06 A2986 RMK A01 T03620064  RH  016%=      5-min Rain = 0
KUM1 201717Z 27007KT 36/06 A2986 RMK A01 T03620064  RH  016%=      5-min Rain = 0
KUM1 201718Z 28008G16KT 36/07 A2986 RMK A01 T03630065  RH  016%=      5-min Rain = 0
KUM1 201719Z 27012KT 37/06 A2986 RMK A01 T03650062  RH  016%=      5-min Rain = 0
KUM1 201720Z 25009KT 37/05 A2986 RMK A01 T03670052  RH  014%=      5-min Rain = 0
KUM1 201721Z 24009KT 36/05 A2986 RMK A01 T03630049  RH  014%=      5-min Rain = 0
KUM1 201722Z 25008KT 36/05 A2986 RMK A01 T03590049  RH  015%=      5-min Rain = 0
KUM1 201723Z 25010KT 36/06 A2986 RMK A01 T03590057  RH  016%=      5-min Rain = 0
KUM1 201724Z 26009G14KT 36/05 A2986 RMK A01 T03610054  RH  015%=      5-min Rain = 0
KUM1 201725Z 26014KT 36/06 A2986 RMK A01 T03610055  RH  015%=      5-min Rain = 0
KUM1 201726Z 27010KT 36/05 A2986 RMK A01 T03630054  RH  015%=      5-min Rain = 0
KUM1 201727Z 26010KT 36/05 A2986 RMK A01 T03630054  RH  015%=      5-min Rain = 0
KUM1 201728Z 24010KT 36/05 A2986 RMK A01 T03630053  RH  015%=      5-min Rain = 0
KUM1 201729Z 25009KT 36/05 A2985 RMK A01 T03640047  RH  014%=      5-min Rain = 0
KUM1 201730Z 24010KT 37/06 A2985 RMK A01 T03650056  RH  015%=      5-min Rain = 0
KUM1 201731Z 23010KT 37/06 A2985 RMK A01 T03690059  RH  015%=      5-min Rain = 0
KUM1 201732Z 24008KT 37/05 A2985 RMK A01 T03670052  RH  014%=      5-min Rain = 0
KUM1 201733Z 26009KT 36/06 A2985 RMK A01 T03630058  RH  015%=      5-min Rain = 0
KUM1 201734Z 25007KT 36/06 A2985 RMK A01 T03640058  RH  015%=      5-min Rain = 0
KUM1 201735Z 24006KT 37/06 A2985 RMK A01 T03650056  RH  015%=      5-min Rain = 0
KUM1 201736Z 27008G13KT 37/06 A2985 RMK A01 T03650058  RH  015%=      5-min Rain = 0
KUM1 201737Z 27013G18KT 37/05 A2985 RMK A01 T03650050  RH  014%=      5-min Rain = 0
KUM1 201738Z 26014KT 37/05 A2985 RMK A01 T03670045  RH  014%=      5-min Rain = 0
KUM1 201739Z 24013KT 37/05 A2985 RMK A01 T03670049  RH  014%=      5-min Rain = 0
KUM1 201740Z 25013KT 37/05 A2985 RMK A01 T03670046  RH  014%=      5-min Rain = 0
KUM1 201741Z 26011KT 37/05 A2985 RMK A01 T03670046  RH  014%=      5-min Rain = 0
KUM1 201742Z 24009KT 37/04 A2985 RMK A01 T03650044  RH  014%=      5-min Rain = 0
KUM1 201743Z 25009KT 36/04 A2985 RMK A01 T03640041  RH  013%=      5-min Rain = 0
KUM1 201744Z 24005KT 36/04 A2985 RMK A01 T03630040  RH  013%=      5-min Rain = 0
KUM1 201745Z 24005KT 36/04 A2985 RMK A01 T03620040  RH  014%=      5-min Rain = 0
KUM1 201746Z 22005KT 36/05 A2985 RMK A01 T03630046  RH  014%=      5-min Rain = 0
KUM1 201747Z 21003KT 36/04 A2985 RMK A01 T03640043  RH  014%=      5-min Rain = 0
KUM1 201748Z 25006KT 36/04 A2985 RMK A01 T03630037  RH  013%=      5-min Rain = 0
KUM1 201749Z 25005KT 36/04 A2985 RMK A01 T03610039  RH  014%=      5-min Rain = 0
KUM1 201750Z 24008KT 36/05 A2985 RMK A01 T03610047  RH  014%=      5-min Rain = 0
KUM1 201751Z 23009KT 36/04 A2985 RMK A01 T03640044  RH  014%=      5-min Rain = 0
KUM1 201752Z 24007KT 36/04 A2985 RMK A01 T03640042  RH  014%=      5-min Rain = 0
KUM1 201753Z 24005KT 36/04 A2985 RMK A01 T03620040  RH  014%=      5-min Rain = 0
KUM1 201754Z 27005KT 36/05 A2985 RMK A01 T03600045  RH  014%=      5-min Rain = 0
KUM1 201755Z 27010KT 36/05 A2985 RMK A01 T03640047  RH  014%=      5-min Rain = 0
KUM1 201756Z 24007G13KT 37/05 A2984 RMK A01 T03700048  RH  014%=      5-min Rain = 0
KUM1 201757Z 29014KT 37/04 A2985 RMK A01 T03720044  RH  013%=      5-min Rain = 0
KUM1 201758Z 29013KT 37/04 A2985 RMK A01 T03730044  RH  013%=      5-min Rain = 0
KUM1 201759Z 29014KT 37/04 A2985 RMK A01 T03740041  RH  013%=      5-min Rain = 0
KUM1 201800Z 29011KT 37/04 A2985 RMK A01 T03740038  RH  012%=      5-min Rain = 0
KUM1 201801Z 28016KT 37/04 A2985 RMK A01 T03740037  RH  012%=      5-min Rain = 0
KUM1 201802Z 26016KT 37/03 A2985 RMK A01 T03730033  RH  012%=      5-min Rain = 0
KUM1 201803Z 27012KT 37/03 A2985 RMK A01 T03710032  RH  012%=      5-min Rain = 0
KUM1 201804Z 28014G19KT 37/04 A2985 RMK A01 T03730041  RH  013%=      5-min Rain = 0
KUM1 201805Z 27010KT 38/03 A2985 RMK A01 T03760033  RH  012%=      5-min Rain = 0
KUM1 201806Z 28012KT 37/03 A2985 RMK A01 T03740030  RH  012%=      5-min Rain = 0
KUM1 201807Z 28012KT 37/03 A2985 RMK A01 T03720028  RH  012%=      5-min Rain = 0
KUM1 201808Z 28010G15KT 37/03 A2985 RMK A01 T03710034  RH  012%=      5-min Rain = 0
KUM1 201809Z 28013KT 38/03 A2985 RMK A01 T03750028  RH  012%=      5-min Rain = 0
KUM1 201810Z 29011KT 37/02 A2985 RMK A01 T03740024  RH  011%=      5-min Rain = 0
KUM1 201811Z 28010KT 37/03 A2985 RMK A01 T03730027  RH  012%=      5-min Rain = 0
KUM1 201812Z 23010KT 37/03 A2985 RMK A01 T03720026  RH  012%=      5-min Rain = 0
KUM1 201813Z 22012KT 37/03 A2985 RMK A01 T03730031  RH  012%=      5-min Rain = 0
KUM1 201814Z 25010KT 37/03 A2985 RMK A01 T03730026  RH  012%=      5-min Rain = 0
KUM1 201815Z 23007G13KT 37/02 A2985 RMK A01 T03700020  RH  011%=      5-min Rain = 0
KUM1 201816Z 21010KT 37/02 A2985 RMK A01 T03690024  RH  012%=      5-min Rain = 0
KUM1 201817Z 22009KT 37/03 A2985 RMK A01 T03680028  RH  012%=      5-min Rain = 0
KUM1 201818Z 21007KT 37/03 A2985 RMK A01 T03680030  RH  012%=      5-min Rain = 0
KUM1 201819Z 22006KT 37/03 A2985 RMK A01 T03680029  RH  012%=      5-min Rain = 0
KUM1 201820Z 25008KT 37/03 A2985 RMK A01 T03680027  RH  012%=      5-min Rain = 0
KUM1 201821Z 26011G18KT 37/03 A2985 RMK A01 T03700027  RH  012%=      5-min Rain = 0
KUM1 201822Z 28008G14KT 37/03 A2985 RMK A01 T03710032  RH  012%=      5-min Rain = 0
KUM1 201823Z 29011KT 37/02 A2985 RMK A01 T03690020  RH  011%=      5-min Rain = 0
KUM1 201824Z 30009G15KT 37/02 A2985 RMK A01 T03650022  RH  012%=      5-min Rain = 0
KUM1 201825Z 28013KT 37/02 A2985 RMK A01 T03680024  RH  012%=      5-min Rain = 0
KUM1 201826Z 28010KT 37/03 A2985 RMK A01 T03710028  RH  012%=      5-min Rain = 0
KUM1 201827Z 27008KT 37/03 A2985 RMK A01 T03720029  RH  012%=      5-min Rain = 0
KUM1 201828Z 25010KT 37/03 A2985 RMK A01 T03740030  RH  012%=      5-min Rain = 0
KUM1 201829Z 23007KT 37/03 A2985 RMK A01 T03740032  RH  012%=      5-min Rain = 0
KUM1 201830Z 29008KT 38/04 A2985 RMK A01 T03760036  RH  012%=      5-min Rain = 0
KUM1 201831Z 27012KT 38/03 A2985 RMK A01 T03760032  RH  012%=      5-min Rain = 0
KUM1 201832Z 24012G18KT 38/03 A2985 RMK A01 T03760027  RH  011%=      5-min Rain = 0
KUM1 201833Z 27014KT 38/03 A2985 RMK A01 T03750032  RH  012%=      5-min Rain = 0
KUM1 201834Z 26013KT 38/03 A2985 RMK A01 T03770030  RH  012%=      5-min Rain = 0
KUM1 201835Z 25013KT 38/03 A2985 RMK A01 T03760029  RH  012%=      5-min Rain = 0
KUM1 201836Z 26012G17KT 38/03 A2985 RMK A01 T03780033  RH  012%=      5-min Rain = 0
KUM1 201837Z 24015KT 38/03 A2985 RMK A01 T03790027  RH  011%=      5-min Rain = 0
KUM1 201838Z 21013G18KT 38/04 A2985 RMK A01 T03790038  RH  012%=      5-min Rain = 0
KUM1 201839Z 21012G19KT 38/04 A2984 RMK A01 T03810038  RH  012%=      5-min Rain = 0
KUM1 201840Z 22018KT 38/04 A2984 RMK A01 T03810036  RH  012%=      5-min Rain = 0
KUM1 201841Z 23015KT 37/03 A2984 RMK A01 T03730030  RH  012%=      5-min Rain = 0
KUM1 201842Z 24016KT 37/03 A2984 RMK A01 T03690029  RH  012%=      5-min Rain = 0
KUM1 201843Z 22013KT 37/03 A2984 RMK A01 T03700028  RH  012%=      5-min Rain = 0
KUM1 201844Z 21009KT 37/03 A2984 RMK A01 T03680026  RH  012%=      5-min Rain = 0
KUM1 201845Z 23006KT 36/03 A2984 RMK A01 T03640030  RH  012%=      5-min Rain = 0
KUM1 201846Z 24010G15KT 37/04 A2984 RMK A01 T03680037  RH  013%=      5-min Rain = 0
KUM1 201847Z 23011KT 37/04 A2984 RMK A01 T03730035  RH  012%=      5-min Rain = 0
KUM1 201848Z 22015G20KT 38/05 A2984 RMK A01 T03780045  RH  013%=      5-min Rain = 0
KUM1 201849Z 22011KT 38/03 A2984 RMK A01 T03780033  RH  012%=      5-min Rain = 0
KUM1 201850Z 23011KT 38/04 A2984 RMK A01 T03760038  RH  012%=      5-min Rain = 0
KUM1 201851Z 25010KT 38/03 A2984 RMK A01 T03750034  RH  012%=      5-min Rain = 0
KUM1 201852Z 25011KT 37/03 A2984 RMK A01 T03730027  RH  012%=      5-min Rain = 0
KUM1 201853Z 23012KT 37/03 A2984 RMK A01 T03680027  RH  012%=      5-min Rain = 0
KUM1 201854Z 23009KT 36/03 A2984 RMK A01 T03640026  RH  012%=      5-min Rain = 0
KUM1 201855Z 24011G16KT 36/03 A2984 RMK A01 T03640027  RH  012%=      5-min Rain = 0
KUM1 201856Z 24011KT 36/02 A2984 RMK A01 T03620023  RH  012%=      5-min Rain = 0
KUM1 201857Z 27011G16KT 36/02 A2984 RMK A01 T03590024  RH  012%=      5-min Rain = 0
KUM1 201858Z 28015KT 36/03 A2984 RMK A01 T03580027  RH  013%=      5-min Rain = 0
KUM1 201859Z 28010KT 36/03 A2984 RMK A01 T03570025  RH  013%=      5-min Rain = 0
KUM1 201900Z 28008KT 36/02 A2984 RMK A01 T03550024  RH  013%=      5-min Rain = 0
KUM1 201901Z 26009KT 35/03 A2984 RMK A01 T03540025  RH  013%=      5-min Rain = 0
KUM1 201902Z 25008KT 35/03 A2984 RMK A01 T03530028  RH  013%=      5-min Rain = 0
KUM1 201903Z 26007KT 36/04 A2984 RMK A01 T03590035  RH  013%=      5-min Rain = 0
KUM1 201904Z 22011KT 37/04 A2984 RMK A01 T03690035  RH  013%=      5-min Rain = 0
KUM1 201905Z 23010KT 38/03 A2984 RMK A01 T03750030  RH  012%=      5-min Rain = 0
KUM1 201906Z 24015KT 38/03 A2984 RMK A01 T03760027  RH  011%=      5-min Rain = 0
KUM1 201907Z 24011G16KT 37/02 A2984 RMK A01 T03700015  RH  011%=      5-min Rain = 0
KUM1 201908Z 22011G18KT 37/02 A2984 RMK A01 T03670023  RH  012%=      5-min Rain = 0
KUM1 201909Z 22014KT 37/02 A2984 RMK A01 T03690022  RH  011%=      5-min Rain = 0
KUM1 201910Z 23014KT 37/03 A2984 RMK A01 T03670025  RH  012%=      5-min Rain = 0
KUM1 201911Z 22017KT 37/03 A2983 RMK A01 T03720029  RH  012%=      5-min Rain = 0
KUM1 201912Z 23013KT 37/02 A2984 RMK A01 T03740024  RH  011%=      5-min Rain = 0
KUM1 201913Z 23011KT 38/03 A2984 RMK A01 T03750028  RH  012%=      5-min Rain = 0
KUM1 201914Z 23012KT 38/03 A2984 RMK A01 T03780030  RH  012%=      5-min Rain = 0
KUM1 201915Z 24015KT 38/03 A2984 RMK A01 T03780026  RH  011%=      5-min Rain = 0
KUM1 201916Z 24015KT 38/02 A2984 RMK A01 T03780018  RH  011%=      5-min Rain = 0
KUM1 201917Z 25015KT 38/02 A2984 RMK A01 T03760019  RH  011%=      5-min Rain = 0
KUM1 201918Z 24014KT 38/02 A2984 RMK A01 T03780020  RH  011%=      5-min Rain = 0
KUM1 201919Z 25009KT 38/02 A2984 RMK A01 T03770017  RH  011%=      5-min Rain = 0
KUM1 201920Z 23012G18KT 38/02 A2984 RMK A01 T03750019  RH  011%=      5-min Rain = 0
KUM1 201921Z 23008KT 37/02 A2983 RMK A01 T03720017  RH  011%=      5-min Rain = 0
KUM1 201922Z 28011KT 37/02 A2983 RMK A01 T03680015  RH  011%=      5-min Rain = 0
KUM1 201923Z 27008KT 36/01 A2984 RMK A01 T03630013  RH  011%=      5-min Rain = 0
KUM1 201924Z 25008KT 36/01 A2984 RMK A01 T03600014  RH  011%=      5-min Rain = 0
KUM1 201925Z 25009KT 36/02 A2984 RMK A01 T03590015  RH  012%=      5-min Rain = 0
KUM1 201926Z 26013G18KT 36/02 A2983 RMK A01 T03580015  RH  012%=      5-min Rain = 0
KUM1 201927Z 25017G23KT 36/02 A2984 RMK A01 T03620021  RH  012%=      5-min Rain = 0
KUM1 201928Z 26014KT 37/02 A2983 RMK A01 T03680020  RH  011%=      5-min Rain = 0
KUM1 201929Z 25016KT 37/02 A2983 RMK A01 T03690018  RH  011%=      5-min Rain = 0
KUM1 201930Z 25016KT 37/02 A2983 RMK A01 T03650017  RH  011%=      5-min Rain = 0
KUM1 201931Z 25016KT 37/02 A2983 RMK A01 T03670021  RH  012%=      5-min Rain = 0
KUM1 201932Z 25013KT 37/03 A2983 RMK A01 T03730025  RH  011%=      5-min Rain = 0
KUM1 201933Z 23013KT 38/03 A2983 RMK A01 T03770026  RH  011%=      5-min Rain = 0
KUM1 201934Z 24011KT 38/03 A2983 RMK A01 T03770025  RH  011%=      5-min Rain = 0
KUM1 201935Z 26013KT 38/03 A2983 RMK A01 T03760027  RH  011%=      5-min Rain = 0
KUM1 201936Z 26014KT 38/03 A2983 RMK A01 T03790027  RH  011%=      5-min Rain = 0
KUM1 201937Z 26014KT 38/03 A2983 RMK A01 T03820028  RH  011%=      5-min Rain = 0
KUM1 201938Z 25012KT 38/02 A2983 RMK A01 T03820024  RH  011%=      5-min Rain = 0
KUM1 201939Z 24012KT 38/02 A2983 RMK A01 T03810022  RH  011%=      5-min Rain = 0
KUM1 201940Z 25012KT 38/03 A2983 RMK A01 T03790025  RH  011%=      5-min Rain = 0
KUM1 201941Z 26015KT 38/03 A2983 RMK A01 T03810028  RH  011%=      5-min Rain = 0
KUM1 201942Z 26015G20KT 38/03 A2983 RMK A01 T03830028  RH  011%=      5-min Rain = 0
KUM1 201943Z 28013G18KT 39/03 A2983 RMK A01 T03850033  RH  011%=      5-min Rain = 0
KUM1 201944Z 28015G20KT 39/03 A2983 RMK A01 T03860027  RH  011%=      5-min Rain = 0
KUM1 201945Z 28013G18KT 38/03 A2983 RMK A01 T03840026  RH  011%=      5-min Rain = 0
KUM1 201946Z 26012KT 38/03 A2983 RMK A01 T03830028  RH  011%=      5-min Rain = 0
KUM1 201947Z 26012KT 38/03 A2983 RMK A01 T03830026  RH  011%=      5-min Rain = 0
KUM1 201948Z 26014KT 38/02 A2983 RMK A01 T03800022  RH  011%=      5-min Rain = 0
KUM1 201949Z 27011KT 37/02 A2983 RMK A01 T03720018  RH  011%=      5-min Rain = 0
KUM1 201950Z 27010KT 37/02 A2983 RMK A01 T03690021  RH  011%=      5-min Rain = 0
KUM1 201951Z 25013KT 37/02 A2983 RMK A01 T03710023  RH  011%=      5-min Rain = 0
KUM1 201952Z 27014KT 38/03 A2983 RMK A01 T03760028  RH  011%=      5-min Rain = 0
KUM1 201953Z 25009KT 38/03 A2983 RMK A01 T03810030  RH  011%=      5-min Rain = 0
KUM1 201954Z 23012KT 39/04 A2983 RMK A01 T03870038  RH  012%=      5-min Rain = 0
KUM1 201955Z 23012KT 39/03 A2983 RMK A01 T03900029  RH  011%=      5-min Rain = 0
KUM1 201956Z 23013KT 39/03 A2982 RMK A01 T03890029  RH  011%=      5-min Rain = 0
KUM1 201957Z 23015G22KT 39/03 A2982 RMK A01 T03870029  RH  011%=      5-min Rain = 0
KUM1 201958Z 22018G24KT 39/03 A2983 RMK A01 T03860029  RH  011%=      5-min Rain = 0
KUM1 201959Z 22016KT 38/02 A2983 RMK A01 T03810022  RH  011%=      5-min Rain = 0
KUM1 202000Z 21010KT 38/02 A2983 RMK A01 T03770022  RH  011%=      5-min Rain = 0
KUM1 202001Z 21006KT 38/03 A2982 RMK A01 T03760028  RH  012%=      5-min Rain = 0
KUM1 202002Z 23007G12KT 38/02 A2983 RMK A01 T03750023  RH  011%=      5-min Rain = 0
KUM1 202003Z 24013KT 37/02 A2983 RMK A01 T03730021  RH  011%=      5-min Rain = 0
KUM1 202004Z 24011KT 37/02 A2983 RMK A01 T03720022  RH  011%=      5-min Rain = 0
KUM1 202005Z 24012KT 37/02 A2983 RMK A01 T03720023  RH  011%=      5-min Rain = 0
KUM1 202006Z 23012KT 37/02 A2982 RMK A01 T03700021  RH  011%=      5-min Rain = 0
KUM1 202007Z 23010KT 37/03 A2982 RMK A01 T03680026  RH  012%=      5-min Rain = 0
KUM1 202008Z 24012KT 37/02 A2983 RMK A01 T03690023  RH  012%=      5-min Rain = 0
KUM1 202009Z 23013KT 37/02 A2983 RMK A01 T03690018  RH  011%=      5-min Rain = 0
KUM1 202010Z 22012KT 37/03 A2983 RMK A01 T03660025  RH  012%=      5-min Rain = 0
KUM1 202011Z 24013KT 37/03 A2982 RMK A01 T03670027  RH  012%=      5-min Rain = 0
KUM1 202012Z 24014KT 37/03 A2982 RMK A01 T03710025  RH  012%=      5-min Rain = 0
KUM1 202013Z 23014KT 38/02 A2982 RMK A01 T03750022  RH  011%=      5-min Rain = 0
KUM1 202014Z 23012KT 38/02 A2982 RMK A01 T03770021  RH  011%=      5-min Rain = 0
KUM1 202015Z 24012KT 38/02 A2982 RMK A01 T03790024  RH  011%=      5-min Rain = 0
KUM1 202016Z 26013KT 38/03 A2982 RMK A01 T03810025  RH  011%=      5-min Rain = 0
KUM1 202017Z 25017G23KT 39/03 A2982 RMK A01 T03860033  RH  011%=      5-min Rain = 0
KUM1 202018Z 26014G19KT 39/03 A2982 RMK A01 T03890027  RH  011%=      5-min Rain = 0
KUM1 202019Z 27014KT 39/03 A2982 RMK A01 T03890028  RH  011%=      5-min Rain = 0
KUM1 202020Z 26012G17KT 39/03 A2982 RMK A01 T03900029  RH  011%=      5-min Rain = 0
KUM1 202021Z 23010KT 39/03 A2982 RMK A01 T03890028  RH  011%=      5-min Rain = 0
KUM1 202022Z 22011KT 39/02 A2982 RMK A01 T03870022  RH  010%=      5-min Rain = 0
KUM1 202023Z 22012KT 38/03 A2982 RMK A01 T03830025  RH  011%=      5-min Rain = 0
KUM1 202024Z 22013KT 38/03 A2982 RMK A01 T03830029  RH  011%=      5-min Rain = 0
KUM1 202025Z 21010KT 38/03 A2982 RMK A01 T03830025  RH  011%=      5-min Rain = 0
KUM1 202026Z 22008KT 38/02 A2982 RMK A01 T03800022  RH  011%=      5-min Rain = 0
KUM1 202027Z 21009KT 38/03 A2982 RMK A01 T03790025  RH  011%=      5-min Rain = 0
KUM1 202028Z 20004KT 38/02 A2982 RMK A01 T03800022  RH  011%=      5-min Rain = 0
KUM1 202029Z 23003KT 38/03 A2982 RMK A01 T03800031  RH  012%=      5-min Rain = 0
KUM1 202030Z 26008G14KT 38/03 A2982 RMK A01 T03810025  RH  011%=      5-min Rain = 0
KUM1 202031Z 25011KT 38/02 A2982 RMK A01 T03840017  RH  010%=      5-min Rain = 0
KUM1 202032Z 23006KT 38/02 A2982 RMK A01 T03820018  RH  010%=      5-min Rain = 0
KUM1 202033Z 25007KT 38/02 A2982 RMK A01 T03800020  RH  011%=      5-min Rain = 0
KUM1 202034Z 24007KT 38/02 A2981 RMK A01 T03800023  RH  011%=      5-min Rain = 0
KUM1 202035Z 21010G16KT 38/03 A2981 RMK A01 T03820028  RH  011%=      5-min Rain = 0
KUM1 202036Z 21012KT 39/03 A2981 RMK A01 T03870030  RH  011%=      5-min Rain = 0
KUM1 202037Z 21012KT 39/03 A2981 RMK A01 T03890030  RH  011%=      5-min Rain = 0
KUM1 202038Z 23011KT 39/03 A2981 RMK A01 T03890026  RH  011%=      5-min Rain = 0
KUM1 202039Z 21009KT 39/03 A2981 RMK A01 T03880028  RH  011%=      5-min Rain = 0
KUM1 202040Z 22010KT 39/03 A2981 RMK A01 T03870031  RH  011%=      5-min Rain = 0
KUM1 202041Z 22013KT 39/03 A2981 RMK A01 T03890030  RH  011%=      5-min Rain = 0
KUM1 202042Z 23016KT 39/03 A2981 RMK A01 T03880029  RH  011%=      5-min Rain = 0
KUM1 202043Z 23013KT 39/02 A2981 RMK A01 T03870016  RH  010%=      5-min Rain = 0
KUM1 202044Z 23012G20KT 39/02 A2981 RMK A01 T03850022  RH  011%=      5-min Rain = 0
KUM1 202045Z 23014KT 39/02 A2981 RMK A01 T03880021  RH  010%=      5-min Rain = 0
KUM1 202046Z 23012KT 39/01 A2981 RMK A01 T03890013  RH  010%=      5-min Rain = 0
KUM1 202047Z 24010KT 39/02 A2981 RMK A01 T03870017  RH  010%=      5-min Rain = 0
KUM1 202048Z 25012KT 39/01 A2981 RMK A01 T03870014  RH  010%=      5-min Rain = 0
KUM1 202049Z 25012KT 39/01 A2981 RMK A01 T03870012  RH  010%=      5-min Rain = 0
KUM1 202050Z 25014G20KT 39/01 A2981 RMK A01 T03870014  RH  010%=      5-min Rain = 0
KUM1 202051Z 22012KT 39/02 A2981 RMK A01 T03890023  RH  010%=      5-min Rain = 0
KUM1 202052Z 22013KT 39/02 A2981 RMK A01 T03890019  RH  010%=      5-min Rain = 0
KUM1 202053Z 22010KT 39/01 A2981 RMK A01 T03850012  RH  010%=      5-min Rain = 0
KUM1 202054Z 26009KT 38/01 A2981 RMK A01 T03820013  RH  010%=      5-min Rain = 0
KUM1 202055Z 25010KT 38/01 A2981 RMK A01 T03830014  RH  010%=      5-min Rain = 0
KUM1 202056Z 22010KT 38/02 A2981 RMK A01 T03840015  RH  010%=      5-min Rain = 0
KUM1 202057Z 23009KT 38/02 A2981 RMK A01 T03830015  RH  010%=      5-min Rain = 0
KUM1 202058Z 23011KT 38/02 A2981 RMK A01 T03830022  RH  011%=      5-min Rain = 0
KUM1 202059Z 24011KT 38/02 A2981 RMK A01 T03840019  RH  010%=      5-min Rain = 0
KUM1 202100Z 23011KT 39/02 A2981 RMK A01 T03850020  RH  010%=      5-min Rain = 0
KUM1 202101Z 22009KT 39/02 A2981 RMK A01 T03870024  RH  011%=      5-min Rain = 0
KUM1 202102Z 24011KT 39/02 A298 RMK A01 T03860020  RH  010%=      5-min Rain = 0
KUM1 202103Z 25013G20KT 38/02 A298 RMK A01 T03840020  RH  010%=      5-min Rain = 0
KUM1 202104Z 24017KT 39/02 A298 RMK A01 T03850022  RH  011%=      5-min Rain = 0
KUM1 202105Z 23016KT 39/02 A298 RMK A01 T03850020  RH  010%=      5-min Rain = 0
KUM1 202106Z 22014KT 38/02 A298 RMK A01 T03830022  RH  011%=      5-min Rain = 0
KUM1 202107Z 23013KT 38/02 A298 RMK A01 T03820019  RH  010%=      5-min Rain = 0
KUM1 202108Z 22013KT 38/02 A298 RMK A01 T03820021  RH  011%=      5-min Rain = 0
KUM1 202109Z 23013KT 38/02 A298 RMK A01 T03840024  RH  011%=      5-min Rain = 0
KUM1 202110Z 22017KT 39/02 A298 RMK A01 T03850024  RH  011%=      5-min Rain = 0
KUM1 202111Z 22014KT 38/02 A298 RMK A01 T03830017  RH  010%=      5-min Rain = 0
KUM1 202112Z 22012KT 38/02 A298 RMK A01 T03800022  RH  011%=      5-min Rain = 0
KUM1 202113Z 24014KT 38/03 A298 RMK A01 T03840029  RH  011%=      5-min Rain = 0
KUM1 202114Z 25016KT 39/01 A298 RMK A01 T03860014  RH  010%=      5-min Rain = 0
KUM1 202115Z 26014KT 39/01 A298 RMK A01 T03850010  RH  010%=      5-min Rain = 0
KUM1 202116Z 24012KT 39/01 A298 RMK A01 T03870012  RH  010%=      5-min Rain = 0
KUM1 202117Z 23013G18KT 39/02 A298 RMK A01 T03880022  RH  010%=      5-min Rain = 0
KUM1 202118Z 22014G19KT 39/02 A298 RMK A01 T03880020  RH  010%=      5-min Rain = 0
KUM1 202119Z 22017KT 39/02 A298 RMK A01 T03860020  RH  010%=      5-min Rain = 0
KUM1 202120Z 21015KT 38/02 A298 RMK A01 T03840017  RH  010%=      5-min Rain = 0
KUM1 202121Z 22015KT 38/02 A298 RMK A01 T03830017  RH  010%=      5-min Rain = 0
KUM1 202122Z 21011KT 38/02 A298 RMK A01 T03810020  RH  011%=      5-min Rain = 0
KUM1 202123Z 22012KT 38/02 A298 RMK A01 T03830022  RH  011%=      5-min Rain = 0
KUM1 202124Z 23010KT 38/02 A298 RMK A01 T03830019  RH  010%=      5-min Rain = 0
KUM1 202125Z 23011KT 38/02 A298 RMK A01 T03830015  RH  010%=      5-min Rain = 0
KUM1 202126Z 23008KT 38/02 A2979 RMK A01 T03800020  RH  011%=      5-min Rain = 0
KUM1 202127Z 23012KT 38/02 A2979 RMK A01 T03820022  RH  011%=      5-min Rain = 0
KUM1 202128Z 22013KT 38/02 A2979 RMK A01 T03830023  RH  011%=      5-min Rain = 0
KUM1 202129Z 21012KT 39/02 A2979 RMK A01 T03850022  RH  011%=      5-min Rain = 0
KUM1 202130Z 20012KT 39/02 A2979 RMK A01 T03860024  RH  011%=      5-min Rain = 0
KUM1 202131Z 22014G21KT 38/02 A2979 RMK A01 T03840016  RH  010%=      5-min Rain = 0
KUM1 202132Z 21014KT 38/02 A2979 RMK A01 T03820021  RH  011%=      5-min Rain = 0
KUM1 202133Z 21014KT 38/02 A2979 RMK A01 T03840024  RH  011%=      5-min Rain = 0
KUM1 202134Z 20014G19KT 39/02 A2979 RMK A01 T03850019  RH  010%=      5-min Rain = 0
KUM1 202135Z 20013KT 39/02 A2979 RMK A01 T03850021  RH  010%=      5-min Rain = 0
KUM1 202136Z 22013G19KT 39/02 A2979 RMK A01 T03850021  RH  010%=      5-min Rain = 0
KUM1 202137Z 23013KT 39/03 A2979 RMK A01 T03870025  RH  011%=      5-min Rain = 0
KUM1 202138Z 23012KT 39/02 A2979 RMK A01 T03880017  RH  010%=      5-min Rain = 0
KUM1 202139Z 25014KT 39/02 A2979 RMK A01 T03870018  RH  010%=      5-min Rain = 0
KUM1 202140Z 25016KT 39/02 A2979 RMK A01 T03880016  RH  010%=      5-min Rain = 0
KUM1 202141Z 24018KT 39/01 A2979 RMK A01 T03880012  RH  010%=      5-min Rain = 0
KUM1 202142Z 24017KT 39/01 A2979 RMK A01 T03870013  RH  010%=      5-min Rain = 0
KUM1 202143Z 25015KT 38/01 A2979 RMK A01 T03820008  RH  010%=      5-min Rain = 0
KUM1 202144Z 25017G22KT 38/01 A2979 RMK A01 T03780010  RH  010%=      5-min Rain = 0
KUM1 202145Z 23015KT 38/01 A2979 RMK A01 T03770010  RH  010%=      5-min Rain = 0
KUM1 202146Z 24012KT 37/01 A2979 RMK A01 T03730008  RH  010%=      5-min Rain = 0
KUM1 202147Z 23009KT 37/01 A2979 RMK A01 T03730010  RH  010%=      5-min Rain = 0
KUM1 202148Z 23008KT 38/02 A2979 RMK A01 T03780019  RH  011%=      5-min Rain = 0
KUM1 202149Z 25011KT 38/01 A2979 RMK A01 T03810012  RH  010%=      5-min Rain = 0
KUM1 202150Z 26012KT 38/01 A2979 RMK A01 T03820014  RH  010%=      5-min Rain = 0
KUM1 202151Z 26011KT 39/01 A2979 RMK A01 T03860013  RH  010%=      5-min Rain = 0
KUM1 202152Z 25008KT 39/01 A2979 RMK A01 T03850011  RH  010%=      5-min Rain = 0
KUM1 202153Z 25010KT 38/01 A2979 RMK A01 T03840014  RH  010%=      5-min Rain = 0
KUM1 202154Z 22010KT 38/02 A2979 RMK A01 T03840017  RH  010%=      5-min Rain = 0
KUM1 202155Z 23011G16KT 38/02 A2978 RMK A01 T03840015  RH  010%=      5-min Rain = 0
KUM1 202156Z 24010KT 38/02 A2978 RMK A01 T03830015  RH  010%=      5-min Rain = 0
KUM1 202157Z 22015KT 38/02 A2978 RMK A01 T03840018  RH  010%=      5-min Rain = 0
KUM1 202158Z 21015KT 39/02 A2978 RMK A01 T03850020  RH  010%=      5-min Rain = 0
KUM1 202159Z 22014KT 39/02 A2979 RMK A01 T03860017  RH  010%=      5-min Rain = 0
KUM1 202200Z 24012KT 39/01 A2979 RMK A01 T03850012  RH  010%=      5-min Rain = 0
KUM1 202201Z 25015G21KT 39/02 A2979 RMK A01 T03850015  RH  010%=      5-min Rain = 0
KUM1 202202Z 25016KT 39/01 A2979 RMK A01 T03860010  RH  010%=      5-min Rain = 0
KUM1 202203Z 24015KT 39/01 A2978 RMK A01 T03850013  RH  010%=      5-min Rain = 0
KUM1 202204Z 21015KT 39/02 A2978 RMK A01 T03850017  RH  010%=      5-min Rain = 0
KUM1 202205Z 22015KT 38/01 A2978 RMK A01 T03830012  RH  010%=      5-min Rain = 0
KUM1 202206Z 23015KT 38/01 A2978 RMK A01 T03810011  RH  010%=      5-min Rain = 0
KUM1 202207Z 24010KT 38/01 A2978 RMK A01 T03800011  RH  010%=      5-min Rain = 0
KUM1 202208Z 25011KT 38/01 A2978 RMK A01 T03810014  RH  010%=      5-min Rain = 0
KUM1 202209Z 25017KT 38/01 A2978 RMK A01 T03840013  RH  010%=      5-min Rain = 0
KUM1 202210Z 25016KT 38/01 A2978 RMK A01 T03830007  RH  010%=      5-min Rain = 0
KUM1 202211Z 26016KT 38/01 A2978 RMK A01 T03820011  RH  010%=      5-min Rain = 0
KUM1 202212Z 26017KT 38/01 A2978 RMK A01 T03830008  RH  010%=      5-min Rain = 0
KUM1 202213Z 24016KT 38/01 A2978 RMK A01 T03820011  RH  010%=      5-min Rain = 0
KUM1 202214Z 24011G16KT 38/01 A2978 RMK A01 T03810007  RH  010%=      5-min Rain = 0
KUM1 202215Z 23012KT 38/01 A2978 RMK A01 T03810010  RH  010%=      5-min Rain = 0
KUM1 202216Z 23009KT 38/01 A2978 RMK A01 T03810012  RH  010%=      5-min Rain = 0
KUM1 202217Z 22010KT 38/02 A2978 RMK A01 T03820017  RH  010%=      5-min Rain = 0
KUM1 202218Z 23012KT 38/02 A2978 RMK A01 T03830017  RH  010%=      5-min Rain = 0
KUM1 202219Z 24012KT 38/01 A2978 RMK A01 T03820012  RH  010%=      5-min Rain = 0
KUM1 202220Z 25014G20KT 38/02 A2978 RMK A01 T03830016  RH  010%=      5-min Rain = 0
KUM1 202221Z 25017KT 39/01 A2978 RMK A01 T03870009  RH  010%=      5-min Rain = 0
KUM1 202222Z 24018G23KT 39/M01 A2978 RMK A01 T03851009  RH  008%=      5-min Rain = 0
KUM1 202223Z 24015KT 38/M01 A2978 RMK A01 T03821010  RH  008%=      5-min Rain = 0
KUM1 202224Z 25015KT 38/M01 A2978 RMK A01 T03821008  RH  009%=      5-min Rain = 0
KUM1 202225Z 25012KT 38/M01 A2978 RMK A01 T03811008  RH  009%=      5-min Rain = 0
KUM1 202226Z 24013KT 38/M01 A2978 RMK A01 T03821006  RH  009%=      5-min Rain = 0
KUM1 202227Z 23011KT 38/M00 A2978 RMK A01 T03821002  RH  009%=      5-min Rain = 0
KUM1 202228Z 24012KT 38/00 A2978 RMK A01 T03830003  RH  009%=      5-min Rain = 0
KUM1 202229Z 23012KT 38/00 A2978 RMK A01 T03840004  RH  009%=      5-min Rain = 0
KUM1 202230Z 23011KT 38/01 A2978 RMK A01 T03840011  RH  010%=      5-min Rain = 0
KUM1 202231Z 23016KT 39/01 A2978 RMK A01 T03850010  RH  010%=      5-min Rain = 0
KUM1 202232Z 23013KT 38/M01 A2978 RMK A01 T03821005  RH  009%=      5-min Rain = 0
KUM1 202233Z 24012KT 38/M00 A2978 RMK A01 T03791002  RH  009%=      5-min Rain = 0
KUM1 202234Z 23012KT 38/00 A2978 RMK A01 T037900-0  RH  009%=      5-min Rain = 0
KUM1 202235Z 23014KT 38/01 A2978 RMK A01 T03790006  RH  010%=      5-min Rain = 0
KUM1 202236Z 22011KT 38/01 A2978 RMK A01 T03790006  RH  010%=      5-min Rain = 0
KUM1 202237Z 23014G21KT 38/01 A2978 RMK A01 T03810014  RH  010%=      5-min Rain = 0
KUM1 202238Z 23017KT 38/01 A2978 RMK A01 T03820005  RH  010%=      5-min Rain = 0
KUM1 202239Z 23017G22KT 38/00 A2978 RMK A01 T03800003  RH  009%=      5-min Rain = 0
KUM1 202240Z 22018KT 38/01 A2978 RMK A01 T03790009  RH  010%=      5-min Rain = 0
KUM1 202241Z 23017KT 38/01 A2978 RMK A01 T03790008  RH  010%=      5-min Rain = 0
KUM1 202242Z 23019KT 38/00 A2978 RMK A01 T03790002  RH  009%=      5-min Rain = 0
KUM1 202243Z 22016KT 38/00 A2978 RMK A01 T03780004  RH  010%=      5-min Rain = 0
KUM1 202244Z 22018G23KT 38/01 A2978 RMK A01 T03780007  RH  010%=      5-min Rain = 0
KUM1 202245Z 23018KT 38/01 A2978 RMK A01 T03780010  RH  010%=      5-min Rain = 0
KUM1 202246Z 23019KT 38/01 A2978 RMK A01 T03780005  RH  010%=      5-min Rain = 0
KUM1 202247Z 23014KT 38/00 A2978 RMK A01 T03770004  RH  010%=      5-min Rain = 0
KUM1 202248Z 24013KT 38/01 A2978 RMK A01 T03770005  RH  010%=      5-min Rain = 0
KUM1 202249Z 25009KT 38/00 A2978 RMK A01 T03800002  RH  009%=      5-min Rain = 0
KUM1 202250Z 24015G20KT 38/00 A2978 RMK A01 T03820004  RH  009%=      5-min Rain = 0
KUM1 202251Z 24014KT 38/00 A2978 RMK A01 T03820004  RH  009%=      5-min Rain = 0
KUM1 202252Z 24011KT 38/00 A2978 RMK A01 T03810003  RH  009%=      5-min Rain = 0
KUM1 202253Z 23012KT 38/00 A2978 RMK A01 T03800004  RH  009%=      5-min Rain = 0
KUM1 202254Z 24014KT 38/01 A2978 RMK A01 T03800005  RH  010%=      5-min Rain = 0
KUM1 202255Z 23011KT 38/00 A2978 RMK A01 T03790003  RH  009%=      5-min Rain = 0
KUM1 202256Z 23012KT 38/01 A2978 RMK A01 T03780008  RH  010%=      5-min Rain = 0
KUM1 202257Z 24012KT 38/01 A2978 RMK A01 T03790007  RH  010%=      5-min Rain = 0
KUM1 202258Z 25014KT 38/01 A2978 RMK A01 T03800009  RH  010%=      5-min Rain = 0
KUM1 202259Z 25015KT 38/00 A2978 RMK A01 T03810003  RH  009%=      5-min Rain = 0
KUM1 202300Z 26013KT 38/00 A2978 RMK A01 T03810001  RH  009%=      5-min Rain = 0
KUM1 202301Z 26012KT 38/00 A2978 RMK A01 T03810001  RH  009%=      5-min Rain = 0
KUM1 202302Z 26011KT 38/01 A2978 RMK A01 T03820005  RH  010%=      5-min Rain = 0
KUM1 202303Z 26012KT 38/01 A2978 RMK A01 T03840005  RH  009%=      5-min Rain = 0
KUM1 202304Z 25012KT 38/00 A2978 RMK A01 T03840004  RH  009%=      5-min Rain = 0
KUM1 202305Z 25012KT 38/00 A2978 RMK A01 T03810002  RH  009%=      5-min Rain = 0
KUM1 202306Z 25010G16KT 38/00 A2978 RMK A01 T03780002  RH  009%=      5-min Rain = 0
KUM1 202307Z 25017KT 38/00 A2977 RMK A01 T03780002  RH  009%=      5-min Rain = 0
KUM1 202308Z 25011G17KT 38/00 A2977 RMK A01 T03790003  RH  009%=      5-min Rain = 0
KUM1 202309Z 25012KT 38/01 A2977 RMK A01 T03820008  RH  010%=      5-min Rain = 0
KUM1 202310Z 24015KT 39/01 A2977 RMK A01 T03850006  RH  009%=      5-min Rain = 0
KUM1 202311Z 24014KT 38/00 A2977 RMK A01 T038300-0  RH  009%=      5-min Rain = 0
KUM1 202312Z 24015KT 38/M00 A2977 RMK A01 T03801002  RH  009%=      5-min Rain = 0
KUM1 202313Z 23014KT 38/00 A2977 RMK A01 T037700-0  RH  009%=      5-min Rain = 0
KUM1 202314Z 23012G17KT 38/01 A2977 RMK A01 T03780008  RH  010%=      5-min Rain = 0
KUM1 202315Z 23011KT 38/01 A2977 RMK A01 T03800014  RH  010%=      5-min Rain = 0
KUM1 202316Z 21011KT 38/03 A2977 RMK A01 T03830026  RH  011%=      5-min Rain = 0
KUM1 202317Z 21012G20KT 38/02 A2977 RMK A01 T03830023  RH  011%=      5-min Rain = 0
KUM1 202318Z 22017KT 38/02 A2977 RMK A01 T03830016  RH  010%=      5-min Rain = 0
KUM1 202319Z 22013G18KT 38/01 A2977 RMK A01 T03800012  RH  010%=      5-min Rain = 0
KUM1 202320Z 24012KT 38/01 A2977 RMK A01 T03800014  RH  010%=      5-min Rain = 0
KUM1 202321Z 23012KT 38/00 A2977 RMK A01 T03790002  RH  009%=      5-min Rain = 0
KUM1 202322Z 23011G16KT 38/00 A2977 RMK A01 T03750003  RH  010%=      5-min Rain = 0
KUM1 202323Z 23011G16KT 37/01 A2977 RMK A01 T03710008  RH  010%=      5-min Rain = 0
KUM1 202324Z 23013KT 37/01 A2977 RMK A01 T03700007  RH  010%=      5-min Rain = 0
KUM1 202325Z 23010KT 37/00 A2977 RMK A01 T03700004  RH  010%=      5-min Rain = 0
KUM1 202326Z 23010KT 37/01 A2977 RMK A01 T03710006  RH  010%=      5-min Rain = 0
KUM1 202327Z 23009KT 37/01 A2977 RMK A01 T03730009  RH  010%=      5-min Rain = 0
KUM1 202328Z 22011KT 38/01 A2977 RMK A01 T03750010  RH  010%=      5-min Rain = 0
KUM1 202329Z 23008KT 38/02 A2977 RMK A01 T03770019  RH  011%=      5-min Rain = 0
KUM1 202330Z 23013KT 38/02 A2977 RMK A01 T03790019  RH  011%=      5-min Rain = 0
KUM1 202331Z 23011KT 38/01 A2977 RMK A01 T03780014  RH  010%=      5-min Rain = 0
KUM1 202332Z 23013KT 38/02 A2977 RMK A01 T03770015  RH  010%=      5-min Rain = 0
KUM1 202333Z 23012KT 38/01 A2977 RMK A01 T03770009  RH  010%=      5-min Rain = 0
KUM1 202334Z 24012KT 38/01 A2977 RMK A01 T03770006  RH  010%=      5-min Rain = 0
KUM1 202335Z 22013KT 38/01 A2977 RMK A01 T03760011  RH  010%=      5-min Rain = 0
KUM1 202336Z 21013G18KT 38/02 A2977 RMK A01 T03760023  RH  011%=      5-min Rain = 0
KUM1 202337Z 22014G20KT 38/02 A2977 RMK A01 T03770017  RH  011%=      5-min Rain = 0
KUM1 202338Z 22012KT 38/02 A2977 RMK A01 T03760019  RH  011%=      5-min Rain = 0
KUM1 202339Z 22014KT 38/02 A2977 RMK A01 T03760016  RH  011%=      5-min Rain = 0
KUM1 202340Z 22013KT 37/02 A2977 RMK A01 T03700016  RH  011%=      5-min Rain = 0
KUM1 202341Z 22012KT 37/01 A2977 RMK A01 T03660010  RH  011%=      5-min Rain = 0
KUM1 202342Z 22010KT 36/01 A2977 RMK A01 T03640010  RH  011%=      5-min Rain = 0
KUM1 202343Z 21014G19KT 37/02 A2976 RMK A01 T03650015  RH  011%=      5-min Rain = 0
KUM1 202344Z 22012G17KT 37/02 A2977 RMK A01 T03670016  RH  011%=      5-min Rain = 0
KUM1 202345Z 23008KT 37/03 A2977 RMK A01 T03700027  RH  012%=      5-min Rain = 0
KUM1 202346Z 21008G15KT 37/03 A2976 RMK A01 T03730029  RH  012%=      5-min Rain = 0
KUM1 202347Z 21011KT 38/02 A2976 RMK A01 T03750021  RH  011%=      5-min Rain = 0
KUM1 202348Z 21010KT 38/02 A2976 RMK A01 T03750021  RH  011%=      5-min Rain = 0
KUM1 202349Z 21010KT 37/02 A2976 RMK A01 T03740023  RH  011%=      5-min Rain = 0
KUM1 202350Z 21009KT 37/02 A2976 RMK A01 T03740020  RH  011%=      5-min Rain = 0
KUM1 202351Z 20008KT 37/03 A2976 RMK A01 T03740025  RH  011%=      5-min Rain = 0
KUM1 202352Z 20010KT 37/01 A2976 RMK A01 T03740011  RH  010%=      5-min Rain = 0
KUM1 202353Z 21009KT 37/01 A2976 RMK A01 T03740012  RH  010%=      5-min Rain = 0
KUM1 202354Z 21009KT 37/01 A2976 RMK A01 T03730012  RH  010%=      5-min Rain = 0
KUM1 202355Z 21010KT 37/02 A2976 RMK A01 T03730015  RH  011%=      5-min Rain = 0
KUM1 202356Z 22012KT 37/02 A2976 RMK A01 T03710016  RH  011%=      5-min Rain = 0
KUM1 202357Z 21010KT 37/02 A2976 RMK A01 T03670017  RH  011%=      5-min Rain = 0
KUM1 202358Z 21010KT 36/02 A2976 RMK A01 T03630020  RH  012%=      5-min Rain = 0
KUM1 202359Z 22012KT 36/02 A2976 RMK A01 T03600021  RH  012%=      5-min Rain = 0
KUM1 210000Z 22013KT 36/02 A2976 RMK A01 T03570017  RH  012%=      5-min Rain = 0
KUM1 210001Z 22012KT 36/01 A2976 RMK A01 T03560014  RH  012%=      5-min Rain = 0
KUM1 210002Z 22011KT 36/02 A2976 RMK A01 T03550015  RH  012%=      5-min Rain = 0
KUM1 210003Z 22011KT 36/02 A2976 RMK A01 T03550017  RH  012%=      5-min Rain = 0
KUM1 210004Z 22008KT 35/02 A2976 RMK A01 T03530023  RH  013%=      5-min Rain = 0
KUM1 210005Z 22009KT 35/03 A2976 RMK A01 T03520026  RH  013%=      5-min Rain = 0
KUM1 210006Z 21008KT 35/02 A2976 RMK A01 T03510024  RH  013%=      5-min Rain = 0
KUM1 210007Z 21007KT 35/02 A2976 RMK A01 T03500022  RH  013%=      5-min Rain = 0
KUM1 210008Z 21008KT 35/02 A2976 RMK A01 T03500024  RH  013%=      5-min Rain = 0
KUM1 210009Z 21008KT 35/02 A2976 RMK A01 T03480024  RH  013%=      5-min Rain = 0
KUM1 210010Z 20009KT 35/02 A2976 RMK A01 T03480021  RH  013%=      5-min Rain = 0
KUM1 210011Z 22007KT 35/02 A2976 RMK A01 T03480019  RH  013%=      5-min Rain = 0
KUM1 210012Z 20009KT 35/03 A2976 RMK A01 T03470025  RH  013%=      5-min Rain = 0
KUM1 210013Z 19009KT 35/03 A2976 RMK A01 T03480029  RH  014%=      5-min Rain = 0
KUM1 210014Z 19009KT 35/03 A2976 RMK A01 T03480033  RH  014%=      5-min Rain = 0
KUM1 210015Z 19011KT 35/04 A2976 RMK A01 T03480035  RH  014%=      5-min Rain = 0
KUM1 210016Z 18010KT 35/04 A2976 RMK A01 T03480039  RH  015%=      5-min Rain = 0
KUM1 210017Z 19010KT 35/04 A2976 RMK A01 T03460042  RH  015%=      5-min Rain = 0
KUM1 210018Z 19010KT 35/04 A2976 RMK A01 T03460042  RH  015%=      5-min Rain = 0
KUM1 210019Z 19008KT 35/05 A2976 RMK A01 T03460046  RH  016%=      5-min Rain = 0
KUM1 210020Z 19011KT 34/05 A2976 RMK A01 T03440049  RH  016%=      5-min Rain = 0
KUM1 210021Z 19010KT 34/05 A2976 RMK A01 T03430050  RH  016%=      5-min Rain = 0
KUM1 210022Z 19010KT 34/05 A2976 RMK A01 T03430053  RH  016%=      5-min Rain = 0
KUM1 210023Z 19011KT 34/05 A2976 RMK A01 T03430053  RH  016%=      5-min Rain = 0
KUM1 210024Z 19010KT 35/06 A2976 RMK A01 T03450055  RH  016%=      5-min Rain = 0
KUM1 210025Z 19009KT 35/06 A2976 RMK A01 T03470056  RH  016%=      5-min Rain = 0
KUM1 210026Z 19010KT 35/06 A2976 RMK A01 T03490055  RH  016%=      5-min Rain = 0
KUM1 210027Z 19011KT 35/05 A2976 RMK A01 T03510053  RH  016%=      5-min Rain = 0
KUM1 210028Z 19007KT 35/06 A2976 RMK A01 T03520056  RH  016%=      5-min Rain = 0
KUM1 210029Z 20009G14KT 35/06 A2976 RMK A01 T03530055  RH  016%=      5-min Rain = 0
KUM1 210030Z 19011G16KT 35/05 A2976 RMK A01 T03530051  RH  015%=      5-min Rain = 0
KUM1 210031Z 19012KT 35/05 A2976 RMK A01 T03530051  RH  015%=      5-min Rain = 0
KUM1 210032Z 19014KT 35/05 A2976 RMK A01 T03530048  RH  015%=      5-min Rain = 0
KUM1 210033Z 19012KT 35/05 A2976 RMK A01 T03520046  RH  015%=      5-min Rain = 0
KUM1 210034Z 20012KT 35/05 A2976 RMK A01 T03520048  RH  015%=      5-min Rain = 0
KUM1 210035Z 20010KT 35/05 A2976 RMK A01 T03510047  RH  015%=      5-min Rain = 0
KUM1 210036Z 19008KT 35/05 A2976 RMK A01 T03510050  RH  015%=      5-min Rain = 0
KUM1 210037Z 19013G18KT 35/05 A2976 RMK A01 T03500051  RH  016%=      5-min Rain = 0
KUM1 210038Z 19012KT 35/05 A2976 RMK A01 T03480045  RH  015%=      5-min Rain = 0
KUM1 210039Z 20013KT 35/05 A2976 RMK A01 T03450045  RH  015%=      5-min Rain = 0
KUM1 210040Z 20012KT 34/05 A2976 RMK A01 T03440046  RH  016%=      5-min Rain = 0
KUM1 210041Z 19013KT 34/05 A2976 RMK A01 T03430045  RH  016%=      5-min Rain = 0
KUM1 210042Z 19011KT 34/05 A2976 RMK A01 T03420046  RH  016%=      5-min Rain = 0
KUM1 210043Z 19009KT 34/05 A2976 RMK A01 T03410048  RH  016%=      5-min Rain = 0
KUM1 210044Z 19010KT 34/05 A2976 RMK A01 T03400052  RH  017%=      5-min Rain = 0
KUM1 210045Z 19010KT 34/05 A2976 RMK A01 T03390052  RH  017%=      5-min Rain = 0
KUM1 210046Z 19011KT 34/05 A2976 RMK A01 T03380052  RH  017%=      5-min Rain = 0
KUM1 210047Z 19012KT 34/05 A2976 RMK A01 T03360050  RH  017%=      5-min Rain = 0
KUM1 210048Z 19012KT 34/05 A2976 RMK A01 T03350048  RH  017%=      5-min Rain = 0
KUM1 210049Z 19010KT 33/05 A2976 RMK A01 T03330050  RH  017%=      5-min Rain = 0
KUM1 210050Z 19009KT 33/05 A2976 RMK A01 T03320052  RH  017%=      5-min Rain = 0
KUM1 210051Z 19013KT 33/05 A2976 RMK A01 T03300052  RH  017%=      5-min Rain = 0
KUM1 210052Z 19010KT 33/05 A2976 RMK A01 T03310051  RH  017%=      5-min Rain = 0
KUM1 210053Z 19011KT 33/05 A2976 RMK A01 T03320053  RH  017%=      5-min Rain = 0
KUM1 210054Z 19009KT 33/05 A2976 RMK A01 T03330052  RH  017%=      5-min Rain = 0
KUM1 210055Z 19009KT 33/05 A2976 RMK A01 T03330053  RH  017%=      5-min Rain = 0
KUM1 210056Z 19009KT 33/05 A2976 RMK A01 T03330053  RH  017%=      5-min Rain = 0
KUM1 210057Z 19009KT 33/05 A2976 RMK A01 T03330052  RH  017%=      5-min Rain = 0
KUM1 210058Z 19008KT 33/05 A2976 RMK A01 T03330052  RH  017%=      5-min Rain = 0
KUM1 210059Z 19008KT 33/06 A2976 RMK A01 T03330055  RH  018%=      5-min Rain = 0
KUM1 210100Z 19009KT 33/05 A2976 RMK A01 T03320054  RH  018%=      5-min Rain = 0
KUM1 210101Z 19010KT 33/05 A2976 RMK A01 T03320053  RH  018%=      5-min Rain = 0
KUM1 210102Z 19009KT 33/05 A2976 RMK A01 T03320052  RH  017%=      5-min Rain = 0
KUM1 210103Z 19008KT 33/05 A2976 RMK A01 T03310053  RH  018%=      5-min Rain = 0
KUM1 210104Z 19009KT 33/05 A2976 RMK A01 T03300053  RH  018%=      5-min Rain = 0
KUM1 210105Z 19008KT 33/05 A2976 RMK A01 T03300054  RH  018%=      5-min Rain = 0
KUM1 210106Z 18008KT 33/05 A2976 RMK A01 T03290054  RH  018%=      5-min Rain = 0
KUM1 210107Z 19007KT 33/05 A2976 RMK A01 T03290053  RH  018%=      5-min Rain = 0
KUM1 210108Z 19009KT 33/05 A2976 RMK A01 T03280053  RH  018%=      5-min Rain = 0
KUM1 210109Z 19008G13KT 33/05 A2976 RMK A01 T03270052  RH  018%=      5-min Rain = 0
KUM1 210110Z 18009KT 33/05 A2976 RMK A01 T03260053  RH  018%=      5-min Rain = 0
KUM1 210111Z 19008KT 33/05 A2976 RMK A01 T03260052  RH  018%=      5-min Rain = 0
KUM1 210112Z 19008KT 33/05 A2976 RMK A01 T03250052  RH  018%=      5-min Rain = 0
KUM1 210113Z 19009KT 32/05 A2976 RMK A01 T03240053  RH  018%=      5-min Rain = 0
KUM1 210114Z 19009KT 32/05 A2976 RMK A01 T03230054  RH  019%=      5-min Rain = 0
KUM1 210115Z 19008KT 32/05 A2976 RMK A01 T03220054  RH  019%=      5-min Rain = 0
KUM1 210116Z 19009KT 32/05 A2976 RMK A01 T03200054  RH  019%=      5-min Rain = 0
KUM1 210117Z 19007KT 32/05 A2976 RMK A01 T03190054  RH  019%=      5-min Rain = 0
KUM1 210118Z 19008KT 32/05 A2976 RMK A01 T03180054  RH  019%=      5-min Rain = 0
KUM1 210119Z 19008KT 32/06 A2976 RMK A01 T03170056  RH  019%=      5-min Rain = 0
KUM1 210120Z 19007KT 32/06 A2976 RMK A01 T03150057  RH  020%=      5-min Rain = 0
KUM1 210121Z 19008KT 31/06 A2976 RMK A01 T03140058  RH  020%=      5-min Rain = 0
KUM1 210122Z 19008KT 31/06 A2976 RMK A01 T03120058  RH  020%=      5-min Rain = 0
KUM1 210123Z 19007KT 31/06 A2976 RMK A01 T03110058  RH  020%=      5-min Rain = 0
KUM1 210124Z 19008KT 31/06 A2976 RMK A01 T03100060  RH  021%=      5-min Rain = 0
KUM1 210125Z 19009KT 31/06 A2976 RMK A01 T03090059  RH  021%=      5-min Rain = 0
KUM1 210126Z 19008KT 31/06 A2976 RMK A01 T03080058  RH  021%=      5-min Rain = 0
KUM1 210127Z 19008KT 31/06 A2976 RMK A01 T03070057  RH  021%=      5-min Rain = 0
KUM1 210128Z 18009KT 31/06 A2976 RMK A01 T03070057  RH  021%=      5-min Rain = 0
KUM1 210129Z 18008KT 31/06 A2976 RMK A01 T03070058  RH  021%=      5-min Rain = 0
KUM1 210130Z 18009KT 31/06 A2976 RMK A01 T03050059  RH  021%=      5-min Rain = 0
KUM1 210131Z 18009KT 30/06 A2976 RMK A01 T03040059  RH  021%=      5-min Rain = 0
KUM1 210132Z 19008KT 30/06 A2976 RMK A01 T03030059  RH  021%=      5-min Rain = 0
KUM1 210133Z 18007KT 30/06 A2976 RMK A01 T03030060  RH  022%=      5-min Rain = 0
KUM1 210134Z 18007KT 30/06 A2976 RMK A01 T03010061  RH  022%=      5-min Rain = 0
KUM1 210135Z 19008KT 30/06 A2976 RMK A01 T03000060  RH  022%=      5-min Rain = 0
KUM1 210136Z 18008KT 30/06 A2976 RMK A01 T02990060  RH  022%=      5-min Rain = 0
KUM1 210137Z 18008KT 30/06 A2976 RMK A01 T02980060  RH  022%=      5-min Rain = 0
KUM1 210138Z 18008KT 30/06 A2976 RMK A01 T02970060  RH  022%=      5-min Rain = 0
KUM1 210139Z 18007KT 30/06 A2976 RMK A01 T02960060  RH  022%=      5-min Rain = 0
KUM1 210140Z 18007KT 30/06 A2976 RMK A01 T02950060  RH  023%=      5-min Rain = 0
KUM1 210141Z 18008KT 29/06 A2976 RMK A01 T02940061  RH  023%=      5-min Rain = 0
KUM1 210142Z 18007KT 29/06 A2976 RMK A01 T02920060  RH  023%=      5-min Rain = 0
KUM1 210143Z 18008KT 29/06 A2976 RMK A01 T02910059  RH  023%=      5-min Rain = 0
KUM1 210144Z 18008KT 29/06 A2976 RMK A01 T02910060  RH  023%=      5-min Rain = 0
KUM1 210145Z 18007KT 29/06 A2976 RMK A01 T02900061  RH  023%=      5-min Rain = 0
KUM1 210146Z 18008KT 29/06 A2976 RMK A01 T02880059  RH  023%=      5-min Rain = 0
KUM1 210147Z 18007KT 29/06 A2976 RMK A01 T02870059  RH  024%=      5-min Rain = 0
KUM1 210148Z 19008KT 29/06 A2976 RMK A01 T02860059  RH  024%=      5-min Rain = 0
KUM1 210149Z 19008KT 29/06 A2976 RMK A01 T02850059  RH  024%=      5-min Rain = 0
KUM1 210150Z 18008KT 28/06 A2976 RMK A01 T02830059  RH  024%=      5-min Rain = 0
KUM1 210151Z 19007KT 28/06 A2976 RMK A01 T02810059  RH  024%=      5-min Rain = 0
KUM1 210152Z 19008KT 28/06 A2976 RMK A01 T02800060  RH  025%=      5-min Rain = 0
KUM1 210153Z 18008KT 28/06 A2976 RMK A01 T02790059  RH  025%=      5-min Rain = 0
KUM1 210154Z 18008KT 28/06 A2976 RMK A01 T02770059  RH  025%=      5-min Rain = 0
KUM1 210155Z 19009KT 28/06 A2976 RMK A01 T02760058  RH  025%=      5-min Rain = 0
KUM1 210156Z 18008KT 28/06 A2976 RMK A01 T02760057  RH  025%=      5-min Rain = 0
KUM1 210157Z 18008KT 28/06 A2976 RMK A01 T02760057  RH  025%=      5-min Rain = 0
KUM1 210158Z 19008KT 28/06 A2976 RMK A01 T02750057  RH  025%=      5-min Rain = 0
KUM1 210159Z 18008KT 28/06 A2976 RMK A01 T02750056  RH  025%=      5-min Rain = 0
KUM1 210200Z 18009KT 28/05 A2976 RMK A01 T02750054  RH  025%=      5-min Rain = 0
KUM1 210201Z 18009KT 28/05 A2976 RMK A01 T02750054  RH  024%=      5-min Rain = 0
KUM1 210202Z 18009KT 28/05 A2976 RMK A01 T02750052  RH  024%=      5-min Rain = 0
KUM1 210203Z 18009KT 28/05 A2976 RMK A01 T02750051  RH  024%=      5-min Rain = 0
KUM1 210204Z 18008KT 27/05 A2976 RMK A01 T02740051  RH  024%=      5-min Rain = 0
KUM1 210205Z 18008KT 27/05 A2976 RMK A01 T02730050  RH  024%=      5-min Rain = 0
KUM1 210206Z 18008KT 27/05 A2976 RMK A01 T02730050  RH  024%=      5-min Rain = 0
KUM1 210207Z 18008KT 27/05 A2976 RMK A01 T02720050  RH  024%=      5-min Rain = 0
KUM1 210208Z 18008KT 27/05 A2976 RMK A01 T02700050  RH  025%=      5-min Rain = 0
KUM1 210209Z 18008KT 27/05 A2976 RMK A01 T02680049  RH  025%=      5-min Rain = 0
KUM1 210210Z 18009KT 27/05 A2976 RMK A01 T02670050  RH  025%=      5-min Rain = 0
KUM1 210211Z 18009KT 27/05 A2976 RMK A01 T02660050  RH  025%=      5-min Rain = 0
KUM1 210212Z 18009KT 27/05 A2976 RMK A01 T02650049  RH  025%=      5-min Rain = 0
KUM1 210213Z 18008KT 27/05 A2976 RMK A01 T02650049  RH  025%=      5-min Rain = 0
KUM1 210214Z 18008KT 26/05 A2976 RMK A01 T02630049  RH  025%=      5-min Rain = 0
KUM1 210215Z 18008KT 26/05 A2976 RMK A01 T02620049  RH  025%=      5-min Rain = 0
KUM1 210216Z 18008KT 26/05 A2976 RMK A01 T02610050  RH  026%=      5-min Rain = 0
KUM1 210217Z 18008KT 26/05 A2976 RMK A01 T02590050  RH  026%=      5-min Rain = 0
KUM1 210218Z 18008KT 26/05 A2976 RMK A01 T02570050  RH  026%=      5-min Rain = 0
KUM1 210219Z 18008KT 26/05 A2976 RMK A01 T02550050  RH  027%=      5-min Rain = 0
KUM1 210220Z 18008KT 25/05 A2976 RMK A01 T02540050  RH  027%=      5-min Rain = 0
KUM1 210221Z 18008KT 25/05 A2976 RMK A01 T02530050  RH  027%=      5-min Rain = 0
KUM1 210222Z 18009KT 25/05 A2976 RMK A01 T02520051  RH  027%=      5-min Rain = 0
KUM1 210223Z 17009KT 25/05 A2976 RMK A01 T02510050  RH  027%=      5-min Rain = 0
KUM1 210224Z 17008KT 25/05 A2976 RMK A01 T02500050  RH  028%=      5-min Rain = 0
KUM1 210225Z 17008KT 25/05 A2976 RMK A01 T02500051  RH  028%=      5-min Rain = 0
KUM1 210226Z 17008KT 25/05 A2976 RMK A01 T02490051  RH  028%=      5-min Rain = 0
KUM1 210227Z 18008KT 25/05 A2976 RMK A01 T02480050  RH  028%=      5-min Rain = 0
KUM1 210228Z 18009KT 25/05 A2976 RMK A01 T02490050  RH  028%=      5-min Rain = 0
KUM1 210229Z 18009KT 25/05 A2976 RMK A01 T02490051  RH  028%=      5-min Rain = 0
KUM1 210230Z 18009KT 25/05 A2976 RMK A01 T02500051  RH  028%=      5-min Rain = 0
KUM1 210231Z 18008KT 25/05 A2976 RMK A01 T02520051  RH  027%=      5-min Rain = 0
KUM1 210232Z 18009KT 25/05 A2976 RMK A01 T02530051  RH  027%=      5-min Rain = 0
KUM1 210233Z 18008KT 25/05 A2976 RMK A01 T02530051  RH  027%=      5-min Rain = 0
KUM1 210234Z 18009KT 25/05 A2976 RMK A01 T02540051  RH  027%=      5-min Rain = 0
KUM1 210235Z 18009KT 25/05 A2976 RMK A01 T02530052  RH  027%=      5-min Rain = 0
KUM1 210236Z 18009KT 25/05 A2976 RMK A01 T02530052  RH  027%=      5-min Rain = 0
KUM1 210237Z 18009KT 25/05 A2976 RMK A01 T02530052  RH  027%=      5-min Rain = 0
KUM1 210238Z 18009KT 25/05 A2976 RMK A01 T02530052  RH  027%=      5-min Rain = 0
KUM1 210239Z 18009KT 25/05 A2976 RMK A01 T02530052  RH  027%=      5-min Rain = 0
KUM1 210240Z 18009KT 25/05 A2976 RMK A01 T02540053  RH  027%=      5-min Rain = 0
KUM1 210241Z 18008KT 25/05 A2976 RMK A01 T02540053  RH  027%=      5-min Rain = 0
KUM1 210242Z 18008KT 25/05 A2976 RMK A01 T02540054  RH  028%=      5-min Rain = 0
KUM1 210243Z 18008KT 25/05 A2976 RMK A01 T02530054  RH  028%=      5-min Rain = 0
KUM1 210244Z 18008KT 25/06 A2976 RMK A01 T02520055  RH  028%=      5-min Rain = 0
KUM1 210245Z 18009KT 25/05 A2976 RMK A01 T02500054  RH  028%=      5-min Rain = 0
KUM1 210246Z 18008KT 25/06 A2976 RMK A01 T02500055  RH  029%=      5-min Rain = 0
KUM1 210247Z 18009KT 25/06 A2976 RMK A01 T02490055  RH  029%=      5-min Rain = 0
KUM1 210248Z 18009KT 25/06 A2976 RMK A01 T02480055  RH  029%=      5-min Rain = 0
KUM1 210249Z 18008KT 25/06 A2976 RMK A01 T02470055  RH  029%=      5-min Rain = 0
KUM1 210250Z 18008KT 25/06 A2976 RMK A01 T02460056  RH  029%=      5-min Rain = 0
KUM1 210251Z 18008KT 25/06 A2976 RMK A01 T02460056  RH  029%=      5-min Rain = 0
KUM1 210252Z 18008KT 25/06 A2976 RMK A01 T02450056  RH  030%=      5-min Rain = 0
KUM1 210253Z 18009KT 24/06 A2976 RMK A01 T02440056  RH  030%=      5-min Rain = 0
KUM1 210254Z 18009KT 24/06 A2976 RMK A01 T02430057  RH  030%=      5-min Rain = 0
KUM1 210255Z 18009KT 24/06 A2976 RMK A01 T02430058  RH  030%=      5-min Rain = 0
KUM1 210256Z 18009KT 24/06 A2976 RMK A01 T02420059  RH  031%=      5-min Rain = 0
KUM1 210257Z 18009KT 24/06 A2976 RMK A01 T02410059  RH  031%=      5-min Rain = 0
KUM1 210258Z 19009KT 24/06 A2976 RMK A01 T02410059  RH  031%=      5-min Rain = 0
KUM1 210259Z 19009KT 24/06 A2976 RMK A01 T02420060  RH  031%=      5-min Rain = 0
KUM1 210300Z 18009KT 24/06 A2976 RMK A01 T02420060  RH  031%=      5-min Rain = 0
KUM1 210301Z 19009KT 24/06 A2976 RMK A01 T02420060  RH  031%=      5-min Rain = 0
KUM1 210302Z 18009KT 24/06 A2976 RMK A01 T02430061  RH  031%=      5-min Rain = 0
KUM1 210303Z 18009KT 24/06 A2976 RMK A01 T02430062  RH  031%=      5-min Rain = 0
KUM1 210304Z 19009KT 24/06 A2976 RMK A01 T02420062  RH  031%=      5-min Rain = 0
KUM1 210305Z 18010KT 24/06 A2976 RMK A01 T02420062  RH  031%=      5-min Rain = 0
KUM1 210306Z 18010KT 24/06 A2976 RMK A01 T02430062  RH  031%=      5-min Rain = 0
KUM1 210307Z 19009KT 24/06 A2976 RMK A01 T02440062  RH  031%=      5-min Rain = 0
KUM1 210308Z 19009KT 24/06 A2976 RMK A01 T02440062  RH  031%=      5-min Rain = 0
KUM1 210309Z 18009KT 24/06 A2977 RMK A01 T02440062  RH  031%=      5-min Rain = 0
KUM1 210310Z 18009KT 24/06 A2977 RMK A01 T02440062  RH  031%=      5-min Rain = 0
KUM1 210311Z 18008KT 24/06 A2977 RMK A01 T02430063  RH  031%=      5-min Rain = 0
KUM1 210312Z 18008KT 24/06 A2977 RMK A01 T02410063  RH  032%=      5-min Rain = 0
KUM1 210313Z 18008KT 24/06 A2977 RMK A01 T02400064  RH  032%=      5-min Rain = 0
KUM1 210314Z 18008KT 24/06 A2977 RMK A01 T02380064  RH  033%=      5-min Rain = 0
KUM1 210315Z 18008KT 24/06 A2977 RMK A01 T02360064  RH  033%=      5-min Rain = 0
KUM1 210316Z 19008KT 24/07 A2977 RMK A01 T02350065  RH  033%=      5-min Rain = 0
KUM1 210317Z 19009KT 23/07 A2977 RMK A01 T02340065  RH  034%=      5-min Rain = 0
KUM1 210318Z 19009KT 23/07 A2977 RMK A01 T02340065  RH  034%=      5-min Rain = 0
KUM1 210319Z 19008KT 23/07 A2977 RMK A01 T02330065  RH  034%=      5-min Rain = 0
KUM1 210320Z 19008KT 23/07 A2977 RMK A01 T02330065  RH  034%=      5-min Rain = 0
KUM1 210321Z 19009KT 23/07 A2977 RMK A01 T02310065  RH  034%=      5-min Rain = 0
KUM1 210322Z 19009KT 23/07 A2977 RMK A01 T02300065  RH  034%=      5-min Rain = 0
KUM1 210323Z 19009KT 23/07 A2977 RMK A01 T02300065  RH  035%=      5-min Rain = 0
KUM1 210324Z 19009KT 23/07 A2977 RMK A01 T02290065  RH  035%=      5-min Rain = 0
KUM1 210325Z 19009KT 23/07 A2977 RMK A01 T02290065  RH  035%=      5-min Rain = 0
KUM1 210326Z 18009KT 23/07 A2977 RMK A01 T02290066  RH  035%=      5-min Rain = 0
KUM1 210327Z 18009KT 23/07 A2977 RMK A01 T02290066  RH  035%=      5-min Rain = 0
KUM1 210328Z 18009KT 23/07 A2977 RMK A01 T02290066  RH  035%=      5-min Rain = 0
KUM1 210329Z 18009KT 23/07 A2977 RMK A01 T02290066  RH  035%=      5-min Rain = 0
KUM1 210330Z 19009KT 23/07 A2977 RMK A01 T02290066  RH  035%=      5-min Rain = 0
KUM1 210331Z 19009KT 23/07 A2977 RMK A01 T02300067  RH  035%=      5-min Rain = 0
KUM1 210332Z 18009KT 23/07 A2977 RMK A01 T02300067  RH  035%=      5-min Rain = 0
KUM1 210333Z 18009KT 23/07 A2977 RMK A01 T02300068  RH  035%=      5-min Rain = 0
KUM1 210334Z 18009KT 23/07 A2977 RMK A01 T02300067  RH  035%=      5-min Rain = 0
KUM1 210335Z 18009KT 23/07 A2977 RMK A01 T02310068  RH  035%=      5-min Rain = 0
KUM1 210336Z 19009KT 23/07 A2977 RMK A01 T02320068  RH  035%=      5-min Rain = 0
KUM1 210337Z 19009KT 23/07 A2977 RMK A01 T02320068  RH  035%=      5-min Rain = 0
KUM1 210338Z 19009KT 23/07 A2977 RMK A01 T02330068  RH  035%=      5-min Rain = 0
KUM1 210339Z 19009KT 23/07 A2977 RMK A01 T02330069  RH  035%=      5-min Rain = 0
KUM1 210340Z 19010KT 23/07 A2977 RMK A01 T02340069  RH  035%=      5-min Rain = 0
KUM1 210341Z 19009KT 23/07 A2978 RMK A01 T02340069  RH  035%=      5-min Rain = 0
KUM1 210342Z 19008KT 23/07 A2978 RMK A01 T02340070  RH  035%=      5-min Rain = 0
KUM1 210343Z 19008KT 23/07 A2978 RMK A01 T02340070  RH  035%=      5-min Rain = 0
KUM1 210344Z 19008KT 23/07 A2978 RMK A01 T02320070  RH  035%=      5-min Rain = 0
KUM1 210345Z 19009KT 23/07 A2978 RMK A01 T02310070  RH  035%=      5-min Rain = 0
KUM1 210346Z 19009KT 23/07 A2978 RMK A01 T02310069  RH  035%=      5-min Rain = 0
KUM1 210347Z 19009KT 23/07 A2978 RMK A01 T02310069  RH  035%=      5-min Rain = 0
KUM1 210348Z 19009KT 23/07 A2978 RMK A01 T02310070  RH  036%=      5-min Rain = 0
KUM1 210349Z 19009KT 23/07 A2978 RMK A01 T02300070  RH  036%=      5-min Rain = 0
KUM1 210350Z 19008KT 23/07 A2978 RMK A01 T02300071  RH  036%=      5-min Rain = 0
KUM1 210351Z 19008KT 23/07 A2978 RMK A01 T02290071  RH  036%=      5-min Rain = 0
KUM1 210352Z 18008KT 23/07 A2978 RMK A01 T02280071  RH  036%=      5-min Rain = 0
KUM1 210353Z 19008KT 23/07 A2978 RMK A01 T02270071  RH  037%=      5-min Rain = 0
KUM1 210354Z 19008KT 23/07 A2978 RMK A01 T02260071  RH  037%=      5-min Rain = 0
KUM1 210355Z 19008KT 23/07 A2978 RMK A01 T02260071  RH  037%=      5-min Rain = 0
KUM1 210356Z 19007KT 23/07 A2978 RMK A01 T02260071  RH  037%=      5-min Rain = 0
KUM1 210357Z 19007KT 23/07 A2978 RMK A01 T02250071  RH  037%=      5-min Rain = 0
KUM1 210358Z 18008KT 22/07 A2978 RMK A01 T02240071  RH  037%=      5-min Rain = 0
KUM1 210359Z 18008KT 22/07 A2978 RMK A01 T02230071  RH  037%=      5-min Rain = 0
KUM1 210400Z 18008KT 22/07 A2978 RMK A01 T02220071  RH  038%=      5-min Rain = 0
KUM1 210401Z 18008KT 22/07 A2978 RMK A01 T02220071  RH  038%=      5-min Rain = 0
KUM1 210402Z 18009KT 22/07 A2978 RMK A01 T02220070  RH  038%=      5-min Rain = 0
KUM1 210403Z 18008KT 22/07 A2978 RMK A01 T02220070  RH  037%=      5-min Rain = 0
KUM1 210404Z 18009KT 22/07 A2978 RMK A01 T02230069  RH  037%=      5-min Rain = 0
KUM1 210405Z 18008KT 22/07 A2978 RMK A01 T02230069  RH  037%=      5-min Rain = 0
KUM1 210406Z 18008KT 22/07 A2978 RMK A01 T02240069  RH  037%=      5-min Rain = 0
KUM1 210407Z 18008KT 22/07 A2978 RMK A01 T02240069  RH  037%=      5-min Rain = 0
KUM1 210408Z 18009KT 22/07 A2978 RMK A01 T02240069  RH  037%=      5-min Rain = 0
KUM1 210409Z 18009KT 22/07 A2978 RMK A01 T02240068  RH  037%=      5-min Rain = 0
KUM1 210410Z 18009KT 22/07 A2978 RMK A01 T02240067  RH  036%=      5-min Rain = 0
KUM1 210411Z 18009KT 23/07 A2978 RMK A01 T02250067  RH  036%=      5-min Rain = 0
KUM1 210412Z 18010KT 23/07 A2978 RMK A01 T02260066  RH  035%=      5-min Rain = 0
KUM1 210413Z 18010KT 23/07 A2978 RMK A01 T02280065  RH  035%=      5-min Rain = 0
KUM1 210414Z 18009KT 23/07 A2978 RMK A01 T02290065  RH  035%=      5-min Rain = 0
KUM1 210415Z 19009KT 23/06 A2978 RMK A01 T02300064  RH  034%=      5-min Rain = 0
KUM1 210416Z 19010KT 23/06 A2978 RMK A01 T02310064  RH  034%=      5-min Rain = 0
KUM1 210417Z 18009KT 23/06 A2978 RMK A01 T02310064  RH  034%=      5-min Rain = 0
KUM1 210418Z 19010KT 23/06 A2978 RMK A01 T02310064  RH  034%=      5-min Rain = 0
KUM1 210419Z 18010KT 23/06 A2978 RMK A01 T02310064  RH  034%=      5-min Rain = 0
KUM1 210420Z 19009KT 23/06 A2978 RMK A01 T02300064  RH  034%=      5-min Rain = 0
KUM1 210421Z 19009KT 23/06 A2978 RMK A01 T02310063  RH  034%=      5-min Rain = 0
KUM1 210422Z 19009KT 23/06 A2978 RMK A01 T02310063  RH  034%=      5-min Rain = 0
KUM1 210423Z 19009KT 23/06 A2978 RMK A01 T02300062  RH  034%=      5-min Rain = 0
KUM1 210424Z 19009KT 23/06 A2978 RMK A01 T02310063  RH  034%=      5-min Rain = 0
KUM1 210425Z 19009KT 23/06 A2978 RMK A01 T02300063  RH  034%=      5-min Rain = 0
KUM1 210426Z 19009KT 23/06 A2978 RMK A01 T02300062  RH  034%=      5-min Rain = 0
KUM1 210427Z 19009KT 23/06 A2978 RMK A01 T02290063  RH  034%=      5-min Rain = 0
KUM1 210428Z 19009KT 23/06 A2978 RMK A01 T02290063  RH  034%=      5-min Rain = 0
KUM1 210429Z 19009KT 23/06 A2978 RMK A01 T02280063  RH  034%=      5-min Rain = 0
KUM1 210430Z 19009KT 23/06 A2978 RMK A01 T02280063  RH  034%=      5-min Rain = 0
KUM1 210431Z 19008KT 23/06 A2978 RMK A01 T02270063  RH  035%=      5-min Rain = 0
KUM1 210432Z 19008KT 23/06 A2977 RMK A01 T02270063  RH  035%=      5-min Rain = 0
KUM1 210433Z 19009KT 23/06 A2977 RMK A01 T02250063  RH  035%=      5-min Rain = 0
KUM1 210434Z 19009KT 23/06 A2977 RMK A01 T02250063  RH  035%=      5-min Rain = 0
KUM1 210435Z 19009KT 22/06 A2977 RMK A01 T02240063  RH  035%=      5-min Rain = 0
KUM1 210436Z 19008KT 22/06 A2977 RMK A01 T02240063  RH  035%=      5-min Rain = 0
KUM1 210437Z 19009KT 22/06 A2978 RMK A01 T02230063  RH  035%=      5-min Rain = 0
KUM1 210438Z 19008KT 22/06 A2977 RMK A01 T02230062  RH  035%=      5-min Rain = 0
KUM1 210439Z 19008KT 22/06 A2977 RMK A01 T02220063  RH  036%=      5-min Rain = 0
KUM1 210440Z 19008KT 22/06 A2977 RMK A01 T02210062  RH  036%=      5-min Rain = 0
KUM1 210441Z 19009KT 22/06 A2977 RMK A01 T02210063  RH  036%=      5-min Rain = 0
KUM1 210442Z 19009KT 22/06 A2977 RMK A01 T02200062  RH  036%=      5-min Rain = 0
KUM1 210443Z 19008KT 22/06 A2977 RMK A01 T02200063  RH  036%=      5-min Rain = 0
KUM1 210444Z 19008KT 22/06 A2977 RMK A01 T02190063  RH  036%=      5-min Rain = 0
KUM1 210445Z 18009KT 22/06 A2978 RMK A01 T02180062  RH  036%=      5-min Rain = 0
KUM1 210446Z 19009KT 22/06 A2978 RMK A01 T02170062  RH  036%=      5-min Rain = 0
KUM1 210447Z 19009KT 22/06 A2977 RMK A01 T02180061  RH  036%=      5-min Rain = 0
KUM1 210448Z 20009KT 22/06 A2977 RMK A01 T02200060  RH  035%=      5-min Rain = 0
KUM1 210449Z 19009KT 22/06 A2977 RMK A01 T02220060  RH  035%=      5-min Rain = 0
KUM1 210450Z 19009KT 22/06 A2977 RMK A01 T02230059  RH  035%=      5-min Rain = 0
KUM1 210451Z 19009KT 22/06 A2977 RMK A01 T02230059  RH  035%=      5-min Rain = 0
KUM1 210452Z 19009KT 22/06 A2977 RMK A01 T02230060  RH  035%=      5-min Rain = 0
KUM1 210453Z 19010KT 22/06 A2977 RMK A01 T02230060  RH  035%=      5-min Rain = 0
KUM1 210454Z 19010KT 22/06 A2977 RMK A01 T02230058  RH  034%=      5-min Rain = 0
KUM1 210455Z 19010KT 23/06 A2977 RMK A01 T02250058  RH  034%=      5-min Rain = 0
KUM1 210456Z 19010KT 23/06 A2977 RMK A01 T02260057  RH  033%=      5-min Rain = 0
KUM1 210457Z 19009KT 23/06 A2977 RMK A01 T02270056  RH  033%=      5-min Rain = 0
KUM1 210458Z 19010KT 23/06 A2977 RMK A01 T02280055  RH  033%=      5-min Rain = 0
KUM1 210459Z 19010KT 23/05 A2977 RMK A01 T02280054  RH  032%=      5-min Rain = 0

Page generated in 0.0766 seconds.